<?xml version="1.0" encoding="UTF-8" standalone="no" ?>
<gpx xmlns="http://www.topografix.com/GPX/1/1" xmlns:xsi="http://www.w3.org/2001/XMLSchema-instance" xsi:schemaLocation="http://www.topografix.com/GPX/1/1 http://www.topografix.com/GPX/1/1/gpx.xsd" version="1.1" creator="VisuGPX - https://www.visugpx.com">
  <metadata>
    <name>Lac de Lessy</name>
    <desc><![CDATA[Depart du Hameau de Chutney - Lac de Lessy - Chinaillon]]></desc>
  </metadata>
  <trk>
    <name><![CDATA[Randonnée du 15/08/2018 à 10:59]]></name>
    <trkseg>
      <trkpt lat="45.9835" lon="6.46543">
        <ele>1508</ele>
        <time>2018-08-15T10:59:33+02:00</time>
      </trkpt>
      <trkpt lat="45.98341" lon="6.46539">
        <ele>1509</ele>
        <time>2018-08-15T11:01:15+02:00</time>
      </trkpt>
      <trkpt lat="45.98331" lon="6.46537">
        <ele>1507</ele>
        <time>2018-08-15T11:01:25+02:00</time>
      </trkpt>
      <trkpt lat="45.98322" lon="6.46535">
        <ele>1509</ele>
        <time>2018-08-15T11:01:34+02:00</time>
      </trkpt>
      <trkpt lat="45.98313" lon="6.4653">
        <ele>1507</ele>
        <time>2018-08-15T11:01:45+02:00</time>
      </trkpt>
      <trkpt lat="45.98303" lon="6.46527">
        <ele>1506</ele>
        <time>2018-08-15T11:01:57+02:00</time>
      </trkpt>
      <trkpt lat="45.98294" lon="6.46526">
        <ele>1505</ele>
        <time>2018-08-15T11:02:07+02:00</time>
      </trkpt>
      <trkpt lat="45.98286" lon="6.46532">
        <ele>1501</ele>
        <time>2018-08-15T11:02:47+02:00</time>
      </trkpt>
      <trkpt lat="45.98276" lon="6.46535">
        <ele>1500</ele>
        <time>2018-08-15T11:02:57+02:00</time>
      </trkpt>
      <trkpt lat="45.98266" lon="6.46537">
        <ele>1499</ele>
        <time>2018-08-15T11:03:06+02:00</time>
      </trkpt>
      <trkpt lat="45.98257" lon="6.46544">
        <ele>1498</ele>
        <time>2018-08-15T11:03:15+02:00</time>
      </trkpt>
      <trkpt lat="45.98247" lon="6.46545">
        <ele>1498</ele>
        <time>2018-08-15T11:03:23+02:00</time>
      </trkpt>
      <trkpt lat="45.98238" lon="6.46547">
        <ele>1497</ele>
        <time>2018-08-15T11:03:32+02:00</time>
      </trkpt>
      <trkpt lat="45.98228" lon="6.4655">
        <ele>1496</ele>
        <time>2018-08-15T11:03:40+02:00</time>
      </trkpt>
      <trkpt lat="45.98218" lon="6.46551">
        <ele>1496</ele>
        <time>2018-08-15T11:03:48+02:00</time>
      </trkpt>
      <trkpt lat="45.98208" lon="6.46553">
        <ele>1495</ele>
        <time>2018-08-15T11:03:57+02:00</time>
      </trkpt>
      <trkpt lat="45.98198" lon="6.46556">
        <ele>1494</ele>
        <time>2018-08-15T11:04:05+02:00</time>
      </trkpt>
      <trkpt lat="45.9819" lon="6.46559">
        <ele>1493</ele>
        <time>2018-08-15T11:04:13+02:00</time>
      </trkpt>
      <trkpt lat="45.98181" lon="6.46561">
        <ele>1493</ele>
        <time>2018-08-15T11:04:21+02:00</time>
      </trkpt>
      <trkpt lat="45.98172" lon="6.46565">
        <ele>1493</ele>
        <time>2018-08-15T11:04:29+02:00</time>
      </trkpt>
      <trkpt lat="45.98163" lon="6.46568">
        <ele>1490</ele>
        <time>2018-08-15T11:04:38+02:00</time>
      </trkpt>
      <trkpt lat="45.98154" lon="6.4657">
        <ele>1490</ele>
        <time>2018-08-15T11:04:46+02:00</time>
      </trkpt>
      <trkpt lat="45.98144" lon="6.46572">
        <ele>1489</ele>
        <time>2018-08-15T11:04:54+02:00</time>
      </trkpt>
      <trkpt lat="45.98135" lon="6.46575">
        <ele>1489</ele>
        <time>2018-08-15T11:05:02+02:00</time>
      </trkpt>
      <trkpt lat="45.98125" lon="6.46576">
        <ele>1489</ele>
        <time>2018-08-15T11:05:11+02:00</time>
      </trkpt>
      <trkpt lat="45.98115" lon="6.46578">
        <ele>1488</ele>
        <time>2018-08-15T11:05:19+02:00</time>
      </trkpt>
      <trkpt lat="45.98106" lon="6.4658">
        <ele>1487</ele>
        <time>2018-08-15T11:05:27+02:00</time>
      </trkpt>
      <trkpt lat="45.98097" lon="6.46583">
        <ele>1487</ele>
        <time>2018-08-15T11:05:34+02:00</time>
      </trkpt>
      <trkpt lat="45.98087" lon="6.46586">
        <ele>1484</ele>
        <time>2018-08-15T11:05:43+02:00</time>
      </trkpt>
      <trkpt lat="45.98078" lon="6.46588">
        <ele>1483</ele>
        <time>2018-08-15T11:05:50+02:00</time>
      </trkpt>
      <trkpt lat="45.98068" lon="6.4659">
        <ele>1482</ele>
        <time>2018-08-15T11:05:59+02:00</time>
      </trkpt>
      <trkpt lat="45.98058" lon="6.46592">
        <ele>1481</ele>
        <time>2018-08-15T11:06:07+02:00</time>
      </trkpt>
      <trkpt lat="45.98048" lon="6.46595">
        <ele>1481</ele>
        <time>2018-08-15T11:06:15+02:00</time>
      </trkpt>
      <trkpt lat="45.98039" lon="6.46597">
        <ele>1481</ele>
        <time>2018-08-15T11:06:22+02:00</time>
      </trkpt>
      <trkpt lat="45.9803" lon="6.46602">
        <ele>1480</ele>
        <time>2018-08-15T11:06:30+02:00</time>
      </trkpt>
      <trkpt lat="45.98021" lon="6.46607">
        <ele>1479</ele>
        <time>2018-08-15T11:06:37+02:00</time>
      </trkpt>
      <trkpt lat="45.98012" lon="6.46613">
        <ele>1478</ele>
        <time>2018-08-15T11:06:44+02:00</time>
      </trkpt>
      <trkpt lat="45.98003" lon="6.46621">
        <ele>1478</ele>
        <time>2018-08-15T11:06:49+02:00</time>
      </trkpt>
      <trkpt lat="45.97995" lon="6.46629">
        <ele>1478</ele>
        <time>2018-08-15T11:06:54+02:00</time>
      </trkpt>
      <trkpt lat="45.97987" lon="6.46637">
        <ele>1478</ele>
        <time>2018-08-15T11:07:01+02:00</time>
      </trkpt>
      <trkpt lat="45.97979" lon="6.46642">
        <ele>1477</ele>
        <time>2018-08-15T11:07:10+02:00</time>
      </trkpt>
      <trkpt lat="45.9797" lon="6.46648">
        <ele>1476</ele>
        <time>2018-08-15T11:07:17+02:00</time>
      </trkpt>
      <trkpt lat="45.97962" lon="6.46655">
        <ele>1475</ele>
        <time>2018-08-15T11:07:25+02:00</time>
      </trkpt>
      <trkpt lat="45.97961" lon="6.46642">
        <ele>1470</ele>
        <time>2018-08-15T11:10:04+02:00</time>
      </trkpt>
      <trkpt lat="45.97964" lon="6.46629">
        <ele>1470</ele>
        <time>2018-08-15T11:10:14+02:00</time>
      </trkpt>
      <trkpt lat="45.97966" lon="6.46616">
        <ele>1468</ele>
        <time>2018-08-15T11:10:23+02:00</time>
      </trkpt>
      <trkpt lat="45.9797" lon="6.46604">
        <ele>1467</ele>
        <time>2018-08-15T11:10:32+02:00</time>
      </trkpt>
      <trkpt lat="45.97976" lon="6.46593">
        <ele>1466</ele>
        <time>2018-08-15T11:10:41+02:00</time>
      </trkpt>
      <trkpt lat="45.97981" lon="6.46582">
        <ele>1465</ele>
        <time>2018-08-15T11:10:50+02:00</time>
      </trkpt>
      <trkpt lat="45.97985" lon="6.4657">
        <ele>1465</ele>
        <time>2018-08-15T11:11:00+02:00</time>
      </trkpt>
      <trkpt lat="45.97991" lon="6.46558">
        <ele>1464</ele>
        <time>2018-08-15T11:11:09+02:00</time>
      </trkpt>
      <trkpt lat="45.97996" lon="6.46547">
        <ele>1463</ele>
        <time>2018-08-15T11:11:20+02:00</time>
      </trkpt>
      <trkpt lat="45.98003" lon="6.46538">
        <ele>1462</ele>
        <time>2018-08-15T11:11:29+02:00</time>
      </trkpt>
      <trkpt lat="45.98012" lon="6.4653">
        <ele>1461</ele>
        <time>2018-08-15T11:11:37+02:00</time>
      </trkpt>
      <trkpt lat="45.9802" lon="6.46522">
        <ele>1461</ele>
        <time>2018-08-15T11:11:46+02:00</time>
      </trkpt>
      <trkpt lat="45.98028" lon="6.46516">
        <ele>1460</ele>
        <time>2018-08-15T11:11:56+02:00</time>
      </trkpt>
      <trkpt lat="45.98036" lon="6.4651">
        <ele>1461</ele>
        <time>2018-08-15T11:12:05+02:00</time>
      </trkpt>
      <trkpt lat="45.98044" lon="6.46502">
        <ele>1459</ele>
        <time>2018-08-15T11:12:14+02:00</time>
      </trkpt>
      <trkpt lat="45.98052" lon="6.46495">
        <ele>1459</ele>
        <time>2018-08-15T11:12:23+02:00</time>
      </trkpt>
      <trkpt lat="45.98061" lon="6.46489">
        <ele>1458</ele>
        <time>2018-08-15T11:12:30+02:00</time>
      </trkpt>
      <trkpt lat="45.9807" lon="6.46485">
        <ele>1458</ele>
        <time>2018-08-15T11:12:40+02:00</time>
      </trkpt>
      <trkpt lat="45.98079" lon="6.46481">
        <ele>1458</ele>
        <time>2018-08-15T11:12:48+02:00</time>
      </trkpt>
      <trkpt lat="45.98088" lon="6.46477">
        <ele>1457</ele>
        <time>2018-08-15T11:12:57+02:00</time>
      </trkpt>
      <trkpt lat="45.98097" lon="6.46472">
        <ele>1457</ele>
        <time>2018-08-15T11:13:04+02:00</time>
      </trkpt>
      <trkpt lat="45.98106" lon="6.46465">
        <ele>1456</ele>
        <time>2018-08-15T11:13:12+02:00</time>
      </trkpt>
      <trkpt lat="45.98115" lon="6.46461">
        <ele>1457</ele>
        <time>2018-08-15T11:13:20+02:00</time>
      </trkpt>
      <trkpt lat="45.98123" lon="6.46455">
        <ele>1456</ele>
        <time>2018-08-15T11:13:29+02:00</time>
      </trkpt>
      <trkpt lat="45.98132" lon="6.46451">
        <ele>1456</ele>
        <time>2018-08-15T11:13:36+02:00</time>
      </trkpt>
      <trkpt lat="45.98141" lon="6.46447">
        <ele>1456</ele>
        <time>2018-08-15T11:13:44+02:00</time>
      </trkpt>
      <trkpt lat="45.9815" lon="6.46442">
        <ele>1454</ele>
        <time>2018-08-15T11:13:52+02:00</time>
      </trkpt>
      <trkpt lat="45.98159" lon="6.46438">
        <ele>1455</ele>
        <time>2018-08-15T11:14:00+02:00</time>
      </trkpt>
      <trkpt lat="45.98168" lon="6.46434">
        <ele>1455</ele>
        <time>2018-08-15T11:14:08+02:00</time>
      </trkpt>
      <trkpt lat="45.98177" lon="6.46431">
        <ele>1454</ele>
        <time>2018-08-15T11:14:16+02:00</time>
      </trkpt>
      <trkpt lat="45.98187" lon="6.46428">
        <ele>1454</ele>
        <time>2018-08-15T11:14:25+02:00</time>
      </trkpt>
      <trkpt lat="45.98196" lon="6.46424">
        <ele>1455</ele>
        <time>2018-08-15T11:14:33+02:00</time>
      </trkpt>
      <trkpt lat="45.98206" lon="6.4642">
        <ele>1454</ele>
        <time>2018-08-15T11:14:42+02:00</time>
      </trkpt>
      <trkpt lat="45.98215" lon="6.46417">
        <ele>1454</ele>
        <time>2018-08-15T11:14:50+02:00</time>
      </trkpt>
      <trkpt lat="45.98224" lon="6.46416">
        <ele>1455</ele>
        <time>2018-08-15T11:14:58+02:00</time>
      </trkpt>
      <trkpt lat="45.98232" lon="6.4641">
        <ele>1455</ele>
        <time>2018-08-15T11:15:07+02:00</time>
      </trkpt>
      <trkpt lat="45.98241" lon="6.46402">
        <ele>1454</ele>
        <time>2018-08-15T11:15:16+02:00</time>
      </trkpt>
      <trkpt lat="45.98246" lon="6.46392">
        <ele>1455</ele>
        <time>2018-08-15T11:15:25+02:00</time>
      </trkpt>
      <trkpt lat="45.98254" lon="6.46384">
        <ele>1455</ele>
        <time>2018-08-15T11:15:32+02:00</time>
      </trkpt>
      <trkpt lat="45.98259" lon="6.46372">
        <ele>1458</ele>
        <time>2018-08-15T11:15:40+02:00</time>
      </trkpt>
      <trkpt lat="45.98261" lon="6.46358">
        <ele>1458</ele>
        <time>2018-08-15T11:15:49+02:00</time>
      </trkpt>
      <trkpt lat="45.9826" lon="6.46345">
        <ele>1458</ele>
        <time>2018-08-15T11:15:57+02:00</time>
      </trkpt>
      <trkpt lat="45.98263" lon="6.46332">
        <ele>1459</ele>
        <time>2018-08-15T11:16:06+02:00</time>
      </trkpt>
      <trkpt lat="45.98267" lon="6.46319">
        <ele>1460</ele>
        <time>2018-08-15T11:16:50+02:00</time>
      </trkpt>
      <trkpt lat="45.98273" lon="6.46308">
        <ele>1459</ele>
        <time>2018-08-15T11:16:58+02:00</time>
      </trkpt>
      <trkpt lat="45.98282" lon="6.46303">
        <ele>1459</ele>
        <time>2018-08-15T11:17:08+02:00</time>
      </trkpt>
      <trkpt lat="45.98291" lon="6.46298">
        <ele>1460</ele>
        <time>2018-08-15T11:17:17+02:00</time>
      </trkpt>
      <trkpt lat="45.98294" lon="6.46285">
        <ele>1461</ele>
        <time>2018-08-15T11:17:28+02:00</time>
      </trkpt>
      <trkpt lat="45.98296" lon="6.46272">
        <ele>1461</ele>
        <time>2018-08-15T11:17:36+02:00</time>
      </trkpt>
      <trkpt lat="45.98304" lon="6.46264">
        <ele>1460</ele>
        <time>2018-08-15T11:17:46+02:00</time>
      </trkpt>
      <trkpt lat="45.98313" lon="6.46267">
        <ele>1462</ele>
        <time>2018-08-15T11:17:57+02:00</time>
      </trkpt>
      <trkpt lat="45.98322" lon="6.46266">
        <ele>1462</ele>
        <time>2018-08-15T11:18:12+02:00</time>
      </trkpt>
      <trkpt lat="45.98331" lon="6.46262">
        <ele>1464</ele>
        <time>2018-08-15T11:18:23+02:00</time>
      </trkpt>
      <trkpt lat="45.98341" lon="6.46259">
        <ele>1463</ele>
        <time>2018-08-15T11:18:33+02:00</time>
      </trkpt>
      <trkpt lat="45.98349" lon="6.46262">
        <ele>1461</ele>
        <time>2018-08-15T11:18:51+02:00</time>
      </trkpt>
      <trkpt lat="45.98354" lon="6.46273">
        <ele>1463</ele>
        <time>2018-08-15T11:19:01+02:00</time>
      </trkpt>
      <trkpt lat="45.98362" lon="6.46281">
        <ele>1464</ele>
        <time>2018-08-15T11:19:10+02:00</time>
      </trkpt>
      <trkpt lat="45.98369" lon="6.46288">
        <ele>1464</ele>
        <time>2018-08-15T11:19:19+02:00</time>
      </trkpt>
      <trkpt lat="45.98378" lon="6.46292">
        <ele>1463</ele>
        <time>2018-08-15T11:19:28+02:00</time>
      </trkpt>
      <trkpt lat="45.98388" lon="6.46298">
        <ele>1463</ele>
        <time>2018-08-15T11:19:37+02:00</time>
      </trkpt>
      <trkpt lat="45.98396" lon="6.46305">
        <ele>1465</ele>
        <time>2018-08-15T11:19:51+02:00</time>
      </trkpt>
      <trkpt lat="45.98403" lon="6.46296">
        <ele>1466</ele>
        <time>2018-08-15T11:20:07+02:00</time>
      </trkpt>
      <trkpt lat="45.98412" lon="6.46296">
        <ele>1467</ele>
        <time>2018-08-15T11:20:17+02:00</time>
      </trkpt>
      <trkpt lat="45.9842" lon="6.46288">
        <ele>1467</ele>
        <time>2018-08-15T11:20:28+02:00</time>
      </trkpt>
      <trkpt lat="45.98429" lon="6.46284">
        <ele>1469</ele>
        <time>2018-08-15T11:20:41+02:00</time>
      </trkpt>
      <trkpt lat="45.98438" lon="6.46281">
        <ele>1470</ele>
        <time>2018-08-15T11:20:50+02:00</time>
      </trkpt>
      <trkpt lat="45.98448" lon="6.46282">
        <ele>1470</ele>
        <time>2018-08-15T11:21:01+02:00</time>
      </trkpt>
      <trkpt lat="45.98456" lon="6.46278">
        <ele>1470</ele>
        <time>2018-08-15T11:21:09+02:00</time>
      </trkpt>
      <trkpt lat="45.98465" lon="6.46274">
        <ele>1470</ele>
        <time>2018-08-15T11:21:20+02:00</time>
      </trkpt>
      <trkpt lat="45.98473" lon="6.46267">
        <ele>1471</ele>
        <time>2018-08-15T11:21:40+02:00</time>
      </trkpt>
      <trkpt lat="45.9848" lon="6.46258">
        <ele>1472</ele>
        <time>2018-08-15T11:21:51+02:00</time>
      </trkpt>
      <trkpt lat="45.98487" lon="6.4625">
        <ele>1471</ele>
        <time>2018-08-15T11:22:00+02:00</time>
      </trkpt>
      <trkpt lat="45.98495" lon="6.46243">
        <ele>1471</ele>
        <time>2018-08-15T11:22:09+02:00</time>
      </trkpt>
      <trkpt lat="45.98504" lon="6.46237">
        <ele>1471</ele>
        <time>2018-08-15T11:22:19+02:00</time>
      </trkpt>
      <trkpt lat="45.98513" lon="6.46232">
        <ele>1474</ele>
        <time>2018-08-15T11:22:29+02:00</time>
      </trkpt>
      <trkpt lat="45.98521" lon="6.46224">
        <ele>1475</ele>
        <time>2018-08-15T11:22:41+02:00</time>
      </trkpt>
      <trkpt lat="45.98515" lon="6.46214">
        <ele>1477</ele>
        <time>2018-08-15T11:22:56+02:00</time>
      </trkpt>
      <trkpt lat="45.98511" lon="6.46202">
        <ele>1479</ele>
        <time>2018-08-15T11:23:09+02:00</time>
      </trkpt>
      <trkpt lat="45.98509" lon="6.46189">
        <ele>1480</ele>
        <time>2018-08-15T11:23:21+02:00</time>
      </trkpt>
      <trkpt lat="45.98506" lon="6.46177">
        <ele>1481</ele>
        <time>2018-08-15T11:23:33+02:00</time>
      </trkpt>
      <trkpt lat="45.98504" lon="6.46164">
        <ele>1481</ele>
        <time>2018-08-15T11:23:43+02:00</time>
      </trkpt>
      <trkpt lat="45.98503" lon="6.46151">
        <ele>1482</ele>
        <time>2018-08-15T11:24:07+02:00</time>
      </trkpt>
      <trkpt lat="45.985" lon="6.46138">
        <ele>1484</ele>
        <time>2018-08-15T11:24:20+02:00</time>
      </trkpt>
      <trkpt lat="45.98504" lon="6.46125">
        <ele>1487</ele>
        <time>2018-08-15T11:24:38+02:00</time>
      </trkpt>
      <trkpt lat="45.98505" lon="6.46112">
        <ele>1488</ele>
        <time>2018-08-15T11:24:50+02:00</time>
      </trkpt>
      <trkpt lat="45.98498" lon="6.46102">
        <ele>1488</ele>
        <time>2018-08-15T11:25:04+02:00</time>
      </trkpt>
      <trkpt lat="45.98491" lon="6.46092">
        <ele>1489</ele>
        <time>2018-08-15T11:25:15+02:00</time>
      </trkpt>
      <trkpt lat="45.98485" lon="6.46083">
        <ele>1492</ele>
        <time>2018-08-15T11:25:28+02:00</time>
      </trkpt>
      <trkpt lat="45.98481" lon="6.46071">
        <ele>1494</ele>
        <time>2018-08-15T11:25:38+02:00</time>
      </trkpt>
      <trkpt lat="45.98476" lon="6.4606">
        <ele>1495</ele>
        <time>2018-08-15T11:25:50+02:00</time>
      </trkpt>
      <trkpt lat="45.9847" lon="6.46049">
        <ele>1497</ele>
        <time>2018-08-15T11:26:02+02:00</time>
      </trkpt>
      <trkpt lat="45.98464" lon="6.46038">
        <ele>1497</ele>
        <time>2018-08-15T11:26:14+02:00</time>
      </trkpt>
      <trkpt lat="45.9846" lon="6.46026">
        <ele>1500</ele>
        <time>2018-08-15T11:26:27+02:00</time>
      </trkpt>
      <trkpt lat="45.9846" lon="6.46012">
        <ele>1502</ele>
        <time>2018-08-15T11:26:37+02:00</time>
      </trkpt>
      <trkpt lat="45.98457" lon="6.46">
        <ele>1502</ele>
        <time>2018-08-15T11:26:47+02:00</time>
      </trkpt>
      <trkpt lat="45.98453" lon="6.45987">
        <ele>1505</ele>
        <time>2018-08-15T11:27:00+02:00</time>
      </trkpt>
      <trkpt lat="45.9845" lon="6.45974">
        <ele>1503</ele>
        <time>2018-08-15T11:27:12+02:00</time>
      </trkpt>
      <trkpt lat="45.98448" lon="6.45961">
        <ele>1502</ele>
        <time>2018-08-15T11:27:23+02:00</time>
      </trkpt>
      <trkpt lat="45.98444" lon="6.45949">
        <ele>1503</ele>
        <time>2018-08-15T11:27:34+02:00</time>
      </trkpt>
      <trkpt lat="45.98441" lon="6.45936">
        <ele>1506</ele>
        <time>2018-08-15T11:27:47+02:00</time>
      </trkpt>
      <trkpt lat="45.98437" lon="6.45924">
        <ele>1509</ele>
        <time>2018-08-15T11:27:59+02:00</time>
      </trkpt>
      <trkpt lat="45.98437" lon="6.4591">
        <ele>1510</ele>
        <time>2018-08-15T11:28:10+02:00</time>
      </trkpt>
      <trkpt lat="45.98439" lon="6.45897">
        <ele>1509</ele>
        <time>2018-08-15T11:28:21+02:00</time>
      </trkpt>
      <trkpt lat="45.98445" lon="6.45887">
        <ele>1511</ele>
        <time>2018-08-15T11:28:32+02:00</time>
      </trkpt>
      <trkpt lat="45.98446" lon="6.45874">
        <ele>1511</ele>
        <time>2018-08-15T11:28:44+02:00</time>
      </trkpt>
      <trkpt lat="45.98444" lon="6.45861">
        <ele>1511</ele>
        <time>2018-08-15T11:28:55+02:00</time>
      </trkpt>
      <trkpt lat="45.98438" lon="6.4585">
        <ele>1514</ele>
        <time>2018-08-15T11:29:08+02:00</time>
      </trkpt>
      <trkpt lat="45.98429" lon="6.45843">
        <ele>1516</ele>
        <time>2018-08-15T11:29:24+02:00</time>
      </trkpt>
      <trkpt lat="45.98431" lon="6.45829">
        <ele>1516</ele>
        <time>2018-08-15T11:29:36+02:00</time>
      </trkpt>
      <trkpt lat="45.98435" lon="6.45816">
        <ele>1519</ele>
        <time>2018-08-15T11:29:49+02:00</time>
      </trkpt>
      <trkpt lat="45.9844" lon="6.45806">
        <ele>1519</ele>
        <time>2018-08-15T11:30:02+02:00</time>
      </trkpt>
      <trkpt lat="45.98443" lon="6.45793">
        <ele>1520</ele>
        <time>2018-08-15T11:30:16+02:00</time>
      </trkpt>
      <trkpt lat="45.98434" lon="6.45789">
        <ele>1523</ele>
        <time>2018-08-15T11:30:27+02:00</time>
      </trkpt>
      <trkpt lat="45.98425" lon="6.45783">
        <ele>1525</ele>
        <time>2018-08-15T11:30:40+02:00</time>
      </trkpt>
      <trkpt lat="45.98416" lon="6.45779">
        <ele>1527</ele>
        <time>2018-08-15T11:30:53+02:00</time>
      </trkpt>
      <trkpt lat="45.98407" lon="6.45774">
        <ele>1528</ele>
        <time>2018-08-15T11:31:05+02:00</time>
      </trkpt>
      <trkpt lat="45.98398" lon="6.4577">
        <ele>1530</ele>
        <time>2018-08-15T11:31:16+02:00</time>
      </trkpt>
      <trkpt lat="45.9839" lon="6.45765">
        <ele>1533</ele>
        <time>2018-08-15T11:31:28+02:00</time>
      </trkpt>
      <trkpt lat="45.98384" lon="6.45754">
        <ele>1532</ele>
        <time>2018-08-15T11:31:46+02:00</time>
      </trkpt>
      <trkpt lat="45.98387" lon="6.45742">
        <ele>1534</ele>
        <time>2018-08-15T11:31:59+02:00</time>
      </trkpt>
      <trkpt lat="45.98395" lon="6.45734">
        <ele>1536</ele>
        <time>2018-08-15T11:32:13+02:00</time>
      </trkpt>
      <trkpt lat="45.98402" lon="6.45726">
        <ele>1536</ele>
        <time>2018-08-15T11:32:37+02:00</time>
      </trkpt>
      <trkpt lat="45.98396" lon="6.45716">
        <ele>1539</ele>
        <time>2018-08-15T11:32:53+02:00</time>
      </trkpt>
      <trkpt lat="45.98395" lon="6.45703">
        <ele>1542</ele>
        <time>2018-08-15T11:33:11+02:00</time>
      </trkpt>
      <trkpt lat="45.98398" lon="6.45688">
        <ele>1544</ele>
        <time>2018-08-15T11:33:29+02:00</time>
      </trkpt>
      <trkpt lat="45.98402" lon="6.45676">
        <ele>1546</ele>
        <time>2018-08-15T11:33:43+02:00</time>
      </trkpt>
      <trkpt lat="45.98404" lon="6.45663">
        <ele>1547</ele>
        <time>2018-08-15T11:34:00+02:00</time>
      </trkpt>
      <trkpt lat="45.9841" lon="6.4565">
        <ele>1552</ele>
        <time>2018-08-15T11:34:20+02:00</time>
      </trkpt>
      <trkpt lat="45.98415" lon="6.45638">
        <ele>1553</ele>
        <time>2018-08-15T11:34:36+02:00</time>
      </trkpt>
      <trkpt lat="45.98412" lon="6.45626">
        <ele>1554</ele>
        <time>2018-08-15T11:34:54+02:00</time>
      </trkpt>
      <trkpt lat="45.98406" lon="6.45615">
        <ele>1553</ele>
        <time>2018-08-15T11:35:07+02:00</time>
      </trkpt>
      <trkpt lat="45.98401" lon="6.45603">
        <ele>1554</ele>
        <time>2018-08-15T11:35:19+02:00</time>
      </trkpt>
      <trkpt lat="45.98396" lon="6.45592">
        <ele>1555</ele>
        <time>2018-08-15T11:35:32+02:00</time>
      </trkpt>
      <trkpt lat="45.98395" lon="6.45579">
        <ele>1560</ele>
        <time>2018-08-15T11:35:51+02:00</time>
      </trkpt>
      <trkpt lat="45.98394" lon="6.45566">
        <ele>1561</ele>
        <time>2018-08-15T11:36:08+02:00</time>
      </trkpt>
      <trkpt lat="45.98391" lon="6.45553">
        <ele>1561</ele>
        <time>2018-08-15T11:36:21+02:00</time>
      </trkpt>
      <trkpt lat="45.98387" lon="6.4554">
        <ele>1562</ele>
        <time>2018-08-15T11:36:33+02:00</time>
      </trkpt>
      <trkpt lat="45.98381" lon="6.4553">
        <ele>1563</ele>
        <time>2018-08-15T11:36:42+02:00</time>
      </trkpt>
      <trkpt lat="45.98377" lon="6.45516">
        <ele>1564</ele>
        <time>2018-08-15T11:36:56+02:00</time>
      </trkpt>
      <trkpt lat="45.98369" lon="6.45507">
        <ele>1564</ele>
        <time>2018-08-15T11:37:06+02:00</time>
      </trkpt>
      <trkpt lat="45.98361" lon="6.455">
        <ele>1563</ele>
        <time>2018-08-15T11:37:16+02:00</time>
      </trkpt>
      <trkpt lat="45.98353" lon="6.45493">
        <ele>1563</ele>
        <time>2018-08-15T11:37:26+02:00</time>
      </trkpt>
      <trkpt lat="45.98346" lon="6.45484">
        <ele>1563</ele>
        <time>2018-08-15T11:37:37+02:00</time>
      </trkpt>
      <trkpt lat="45.98338" lon="6.45476">
        <ele>1562</ele>
        <time>2018-08-15T11:37:47+02:00</time>
      </trkpt>
      <trkpt lat="45.98333" lon="6.45465">
        <ele>1561</ele>
        <time>2018-08-15T11:37:58+02:00</time>
      </trkpt>
      <trkpt lat="45.98329" lon="6.45453">
        <ele>1563</ele>
        <time>2018-08-15T11:38:08+02:00</time>
      </trkpt>
      <trkpt lat="45.98328" lon="6.4544">
        <ele>1564</ele>
        <time>2018-08-15T11:38:19+02:00</time>
      </trkpt>
      <trkpt lat="45.98326" lon="6.45426">
        <ele>1564</ele>
        <time>2018-08-15T11:38:32+02:00</time>
      </trkpt>
      <trkpt lat="45.98322" lon="6.45415">
        <ele>1564</ele>
        <time>2018-08-15T11:38:44+02:00</time>
      </trkpt>
      <trkpt lat="45.98317" lon="6.45403">
        <ele>1564</ele>
        <time>2018-08-15T11:38:57+02:00</time>
      </trkpt>
      <trkpt lat="45.98313" lon="6.4539">
        <ele>1563</ele>
        <time>2018-08-15T11:39:06+02:00</time>
      </trkpt>
      <trkpt lat="45.9831" lon="6.45377">
        <ele>1564</ele>
        <time>2018-08-15T11:39:16+02:00</time>
      </trkpt>
      <trkpt lat="45.98307" lon="6.45363">
        <ele>1563</ele>
        <time>2018-08-15T11:39:26+02:00</time>
      </trkpt>
      <trkpt lat="45.98307" lon="6.4535">
        <ele>1564</ele>
        <time>2018-08-15T11:39:36+02:00</time>
      </trkpt>
      <trkpt lat="45.98308" lon="6.45338">
        <ele>1566</ele>
        <time>2018-08-15T11:39:49+02:00</time>
      </trkpt>
      <trkpt lat="45.98302" lon="6.45327">
        <ele>1566</ele>
        <time>2018-08-15T11:40:00+02:00</time>
      </trkpt>
      <trkpt lat="45.98293" lon="6.45319">
        <ele>1568</ele>
        <time>2018-08-15T11:40:12+02:00</time>
      </trkpt>
      <trkpt lat="45.98285" lon="6.45313">
        <ele>1569</ele>
        <time>2018-08-15T11:40:26+02:00</time>
      </trkpt>
      <trkpt lat="45.98279" lon="6.45303">
        <ele>1571</ele>
        <time>2018-08-15T11:40:38+02:00</time>
      </trkpt>
      <trkpt lat="45.98273" lon="6.45293">
        <ele>1572</ele>
        <time>2018-08-15T11:40:52+02:00</time>
      </trkpt>
      <trkpt lat="45.98271" lon="6.4528">
        <ele>1576</ele>
        <time>2018-08-15T11:41:06+02:00</time>
      </trkpt>
      <trkpt lat="45.98265" lon="6.4527">
        <ele>1576</ele>
        <time>2018-08-15T11:41:23+02:00</time>
      </trkpt>
      <trkpt lat="45.98258" lon="6.45261">
        <ele>1577</ele>
        <time>2018-08-15T11:41:35+02:00</time>
      </trkpt>
      <trkpt lat="45.98254" lon="6.45247">
        <ele>1578</ele>
        <time>2018-08-15T11:41:50+02:00</time>
      </trkpt>
      <trkpt lat="45.98251" lon="6.45234">
        <ele>1579</ele>
        <time>2018-08-15T11:42:05+02:00</time>
      </trkpt>
      <trkpt lat="45.98247" lon="6.45222">
        <ele>1579</ele>
        <time>2018-08-15T11:42:18+02:00</time>
      </trkpt>
      <trkpt lat="45.98241" lon="6.45212">
        <ele>1579</ele>
        <time>2018-08-15T11:42:30+02:00</time>
      </trkpt>
      <trkpt lat="45.98238" lon="6.452">
        <ele>1580</ele>
        <time>2018-08-15T11:42:40+02:00</time>
      </trkpt>
      <trkpt lat="45.98232" lon="6.45189">
        <ele>1581</ele>
        <time>2018-08-15T11:42:54+02:00</time>
      </trkpt>
      <trkpt lat="45.98226" lon="6.45178">
        <ele>1580</ele>
        <time>2018-08-15T11:43:05+02:00</time>
      </trkpt>
      <trkpt lat="45.9822" lon="6.45169">
        <ele>1580</ele>
        <time>2018-08-15T11:43:15+02:00</time>
      </trkpt>
      <trkpt lat="45.98212" lon="6.45161">
        <ele>1581</ele>
        <time>2018-08-15T11:43:26+02:00</time>
      </trkpt>
      <trkpt lat="45.98206" lon="6.4515">
        <ele>1582</ele>
        <time>2018-08-15T11:43:38+02:00</time>
      </trkpt>
      <trkpt lat="45.98203" lon="6.45136">
        <ele>1583</ele>
        <time>2018-08-15T11:43:52+02:00</time>
      </trkpt>
      <trkpt lat="45.98201" lon="6.45124">
        <ele>1583</ele>
        <time>2018-08-15T11:44:04+02:00</time>
      </trkpt>
      <trkpt lat="45.98199" lon="6.45111">
        <ele>1582</ele>
        <time>2018-08-15T11:44:15+02:00</time>
      </trkpt>
      <trkpt lat="45.98196" lon="6.45099">
        <ele>1586</ele>
        <time>2018-08-15T11:44:29+02:00</time>
      </trkpt>
      <trkpt lat="45.98195" lon="6.45085">
        <ele>1584</ele>
        <time>2018-08-15T11:44:44+02:00</time>
      </trkpt>
      <trkpt lat="45.98189" lon="6.45076">
        <ele>1586</ele>
        <time>2018-08-15T11:44:58+02:00</time>
      </trkpt>
      <trkpt lat="45.98183" lon="6.45065">
        <ele>1586</ele>
        <time>2018-08-15T11:45:10+02:00</time>
      </trkpt>
      <trkpt lat="45.98179" lon="6.45053">
        <ele>1588</ele>
        <time>2018-08-15T11:45:21+02:00</time>
      </trkpt>
      <trkpt lat="45.98175" lon="6.4504">
        <ele>1587</ele>
        <time>2018-08-15T11:45:37+02:00</time>
      </trkpt>
      <trkpt lat="45.98172" lon="6.45028">
        <ele>1589</ele>
        <time>2018-08-15T11:45:46+02:00</time>
      </trkpt>
      <trkpt lat="45.98168" lon="6.45016">
        <ele>1589</ele>
        <time>2018-08-15T11:45:59+02:00</time>
      </trkpt>
      <trkpt lat="45.98163" lon="6.45005">
        <ele>1589</ele>
        <time>2018-08-15T11:46:11+02:00</time>
      </trkpt>
      <trkpt lat="45.98162" lon="6.44992">
        <ele>1591</ele>
        <time>2018-08-15T11:46:27+02:00</time>
      </trkpt>
      <trkpt lat="45.9816" lon="6.44978">
        <ele>1594</ele>
        <time>2018-08-15T11:46:41+02:00</time>
      </trkpt>
      <trkpt lat="45.98157" lon="6.44964">
        <ele>1595</ele>
        <time>2018-08-15T11:46:55+02:00</time>
      </trkpt>
      <trkpt lat="45.98156" lon="6.44951">
        <ele>1596</ele>
        <time>2018-08-15T11:47:07+02:00</time>
      </trkpt>
      <trkpt lat="45.98154" lon="6.44937">
        <ele>1596</ele>
        <time>2018-08-15T11:47:19+02:00</time>
      </trkpt>
      <trkpt lat="45.98152" lon="6.44924">
        <ele>1598</ele>
        <time>2018-08-15T11:47:29+02:00</time>
      </trkpt>
      <trkpt lat="45.98145" lon="6.44914">
        <ele>1599</ele>
        <time>2018-08-15T11:47:39+02:00</time>
      </trkpt>
      <trkpt lat="45.98139" lon="6.44905">
        <ele>1600</ele>
        <time>2018-08-15T11:47:57+02:00</time>
      </trkpt>
      <trkpt lat="45.98134" lon="6.44893">
        <ele>1600</ele>
        <time>2018-08-15T11:48:08+02:00</time>
      </trkpt>
      <trkpt lat="45.98127" lon="6.44883">
        <ele>1601</ele>
        <time>2018-08-15T11:48:17+02:00</time>
      </trkpt>
      <trkpt lat="45.98126" lon="6.4487">
        <ele>1601</ele>
        <time>2018-08-15T11:48:31+02:00</time>
      </trkpt>
      <trkpt lat="45.98125" lon="6.44857">
        <ele>1602</ele>
        <time>2018-08-15T11:48:42+02:00</time>
      </trkpt>
      <trkpt lat="45.98122" lon="6.44844">
        <ele>1602</ele>
        <time>2018-08-15T11:48:53+02:00</time>
      </trkpt>
      <trkpt lat="45.98117" lon="6.44834">
        <ele>1602</ele>
        <time>2018-08-15T11:49:13+02:00</time>
      </trkpt>
      <trkpt lat="45.98111" lon="6.44823">
        <ele>1601</ele>
        <time>2018-08-15T11:49:24+02:00</time>
      </trkpt>
      <trkpt lat="45.98105" lon="6.44813">
        <ele>1603</ele>
        <time>2018-08-15T11:49:34+02:00</time>
      </trkpt>
      <trkpt lat="45.98101" lon="6.44799">
        <ele>1604</ele>
        <time>2018-08-15T11:49:45+02:00</time>
      </trkpt>
      <trkpt lat="45.98094" lon="6.4479">
        <ele>1604</ele>
        <time>2018-08-15T11:49:55+02:00</time>
      </trkpt>
      <trkpt lat="45.9809" lon="6.44778">
        <ele>1605</ele>
        <time>2018-08-15T11:50:07+02:00</time>
      </trkpt>
      <trkpt lat="45.98085" lon="6.44767">
        <ele>1605</ele>
        <time>2018-08-15T11:50:16+02:00</time>
      </trkpt>
      <trkpt lat="45.98082" lon="6.44754">
        <ele>1608</ele>
        <time>2018-08-15T11:50:25+02:00</time>
      </trkpt>
      <trkpt lat="45.98078" lon="6.44742">
        <ele>1610</ele>
        <time>2018-08-15T11:50:35+02:00</time>
      </trkpt>
      <trkpt lat="45.98075" lon="6.44729">
        <ele>1610</ele>
        <time>2018-08-15T11:50:45+02:00</time>
      </trkpt>
      <trkpt lat="45.98078" lon="6.44716">
        <ele>1613</ele>
        <time>2018-08-15T11:50:57+02:00</time>
      </trkpt>
      <trkpt lat="45.9808" lon="6.44703">
        <ele>1613</ele>
        <time>2018-08-15T11:51:08+02:00</time>
      </trkpt>
      <trkpt lat="45.98083" lon="6.4469">
        <ele>1613</ele>
        <time>2018-08-15T11:51:19+02:00</time>
      </trkpt>
      <trkpt lat="45.98081" lon="6.44677">
        <ele>1614</ele>
        <time>2018-08-15T11:51:34+02:00</time>
      </trkpt>
      <trkpt lat="45.98078" lon="6.44664">
        <ele>1613</ele>
        <time>2018-08-15T11:51:45+02:00</time>
      </trkpt>
      <trkpt lat="45.98078" lon="6.44651">
        <ele>1612</ele>
        <time>2018-08-15T11:51:55+02:00</time>
      </trkpt>
      <trkpt lat="45.98076" lon="6.44637">
        <ele>1613</ele>
        <time>2018-08-15T11:52:07+02:00</time>
      </trkpt>
      <trkpt lat="45.98077" lon="6.44624">
        <ele>1612</ele>
        <time>2018-08-15T11:52:17+02:00</time>
      </trkpt>
      <trkpt lat="45.98081" lon="6.44612">
        <ele>1613</ele>
        <time>2018-08-15T11:52:26+02:00</time>
      </trkpt>
      <trkpt lat="45.98081" lon="6.44598">
        <ele>1614</ele>
        <time>2018-08-15T11:52:39+02:00</time>
      </trkpt>
      <trkpt lat="45.98076" lon="6.44586">
        <ele>1615</ele>
        <time>2018-08-15T11:52:54+02:00</time>
      </trkpt>
      <trkpt lat="45.98071" lon="6.44575">
        <ele>1615</ele>
        <time>2018-08-15T11:53:09+02:00</time>
      </trkpt>
      <trkpt lat="45.98067" lon="6.44561">
        <ele>1617</ele>
        <time>2018-08-15T11:53:22+02:00</time>
      </trkpt>
      <trkpt lat="45.98065" lon="6.44549">
        <ele>1619</ele>
        <time>2018-08-15T11:54:34+02:00</time>
      </trkpt>
      <trkpt lat="45.9806" lon="6.44538">
        <ele>1620</ele>
        <time>2018-08-15T11:54:45+02:00</time>
      </trkpt>
      <trkpt lat="45.98059" lon="6.44524">
        <ele>1621</ele>
        <time>2018-08-15T11:54:58+02:00</time>
      </trkpt>
      <trkpt lat="45.98058" lon="6.44511">
        <ele>1623</ele>
        <time>2018-08-15T11:55:11+02:00</time>
      </trkpt>
      <trkpt lat="45.98062" lon="6.44498">
        <ele>1624</ele>
        <time>2018-08-15T11:55:41+02:00</time>
      </trkpt>
      <trkpt lat="45.98066" lon="6.44486">
        <ele>1627</ele>
        <time>2018-08-15T11:55:55+02:00</time>
      </trkpt>
      <trkpt lat="45.98069" lon="6.44474">
        <ele>1631</ele>
        <time>2018-08-15T11:56:14+02:00</time>
      </trkpt>
      <trkpt lat="45.98074" lon="6.44461">
        <ele>1634</ele>
        <time>2018-08-15T11:56:34+02:00</time>
      </trkpt>
      <trkpt lat="45.98078" lon="6.4445">
        <ele>1634</ele>
        <time>2018-08-15T11:56:48+02:00</time>
      </trkpt>
      <trkpt lat="45.9808" lon="6.44436">
        <ele>1636</ele>
        <time>2018-08-15T11:57:04+02:00</time>
      </trkpt>
      <trkpt lat="45.98075" lon="6.44425">
        <ele>1638</ele>
        <time>2018-08-15T11:57:19+02:00</time>
      </trkpt>
      <trkpt lat="45.98073" lon="6.44412">
        <ele>1642</ele>
        <time>2018-08-15T11:57:51+02:00</time>
      </trkpt>
      <trkpt lat="45.9807" lon="6.44399">
        <ele>1643</ele>
        <time>2018-08-15T11:58:32+02:00</time>
      </trkpt>
      <trkpt lat="45.98068" lon="6.44387">
        <ele>1645</ele>
        <time>2018-08-15T11:58:44+02:00</time>
      </trkpt>
      <trkpt lat="45.98066" lon="6.44373">
        <ele>1646</ele>
        <time>2018-08-15T11:59:02+02:00</time>
      </trkpt>
      <trkpt lat="45.98067" lon="6.4436">
        <ele>1649</ele>
        <time>2018-08-15T11:59:25+02:00</time>
      </trkpt>
      <trkpt lat="45.98068" lon="6.44347">
        <ele>1651</ele>
        <time>2018-08-15T11:59:41+02:00</time>
      </trkpt>
      <trkpt lat="45.9807" lon="6.44334">
        <ele>1656</ele>
        <time>2018-08-15T12:00:18+02:00</time>
      </trkpt>
      <trkpt lat="45.98069" lon="6.44321">
        <ele>1658</ele>
        <time>2018-08-15T12:00:43+02:00</time>
      </trkpt>
      <trkpt lat="45.9807" lon="6.44308">
        <ele>1659</ele>
        <time>2018-08-15T12:00:57+02:00</time>
      </trkpt>
      <trkpt lat="45.98072" lon="6.44295">
        <ele>1661</ele>
        <time>2018-08-15T12:01:14+02:00</time>
      </trkpt>
      <trkpt lat="45.98074" lon="6.44281">
        <ele>1665</ele>
        <time>2018-08-15T12:01:54+02:00</time>
      </trkpt>
      <trkpt lat="45.9808" lon="6.44271">
        <ele>1667</ele>
        <time>2018-08-15T12:02:09+02:00</time>
      </trkpt>
      <trkpt lat="45.98081" lon="6.44258">
        <ele>1669</ele>
        <time>2018-08-15T12:02:27+02:00</time>
      </trkpt>
      <trkpt lat="45.98082" lon="6.44245">
        <ele>1670</ele>
        <time>2018-08-15T12:02:47+02:00</time>
      </trkpt>
      <trkpt lat="45.98078" lon="6.44233">
        <ele>1672</ele>
        <time>2018-08-15T12:03:03+02:00</time>
      </trkpt>
      <trkpt lat="45.9807" lon="6.44225">
        <ele>1674</ele>
        <time>2018-08-15T12:03:33+02:00</time>
      </trkpt>
      <trkpt lat="45.98062" lon="6.4422">
        <ele>1676</ele>
        <time>2018-08-15T12:03:50+02:00</time>
      </trkpt>
      <trkpt lat="45.98054" lon="6.44212">
        <ele>1679</ele>
        <time>2018-08-15T12:04:04+02:00</time>
      </trkpt>
      <trkpt lat="45.98048" lon="6.44202">
        <ele>1681</ele>
        <time>2018-08-15T12:04:19+02:00</time>
      </trkpt>
      <trkpt lat="45.9804" lon="6.44197">
        <ele>1683</ele>
        <time>2018-08-15T12:04:42+02:00</time>
      </trkpt>
      <trkpt lat="45.98031" lon="6.44193">
        <ele>1685</ele>
        <time>2018-08-15T12:04:56+02:00</time>
      </trkpt>
      <trkpt lat="45.98022" lon="6.44188">
        <ele>1687</ele>
        <time>2018-08-15T12:05:09+02:00</time>
      </trkpt>
      <trkpt lat="45.98016" lon="6.44179">
        <ele>1689</ele>
        <time>2018-08-15T12:05:21+02:00</time>
      </trkpt>
      <trkpt lat="45.98008" lon="6.44171">
        <ele>1691</ele>
        <time>2018-08-15T12:05:37+02:00</time>
      </trkpt>
      <trkpt lat="45.98" lon="6.44178">
        <ele>1692</ele>
        <time>2018-08-15T12:05:51+02:00</time>
      </trkpt>
      <trkpt lat="45.97992" lon="6.44186">
        <ele>1693</ele>
        <time>2018-08-15T12:06:05+02:00</time>
      </trkpt>
      <trkpt lat="45.97984" lon="6.4418">
        <ele>1695</ele>
        <time>2018-08-15T12:06:16+02:00</time>
      </trkpt>
      <trkpt lat="45.97976" lon="6.44174">
        <ele>1696</ele>
        <time>2018-08-15T12:06:30+02:00</time>
      </trkpt>
      <trkpt lat="45.97968" lon="6.44168">
        <ele>1696</ele>
        <time>2018-08-15T12:06:42+02:00</time>
      </trkpt>
      <trkpt lat="45.97958" lon="6.44167">
        <ele>1698</ele>
        <time>2018-08-15T12:06:55+02:00</time>
      </trkpt>
      <trkpt lat="45.97948" lon="6.44168">
        <ele>1697</ele>
        <time>2018-08-15T12:07:07+02:00</time>
      </trkpt>
      <trkpt lat="45.9794" lon="6.44172">
        <ele>1698</ele>
        <time>2018-08-15T12:07:18+02:00</time>
      </trkpt>
      <trkpt lat="45.9793" lon="6.44172">
        <ele>1699</ele>
        <time>2018-08-15T12:07:29+02:00</time>
      </trkpt>
      <trkpt lat="45.97923" lon="6.44163">
        <ele>1702</ele>
        <time>2018-08-15T12:07:43+02:00</time>
      </trkpt>
      <trkpt lat="45.97917" lon="6.44151">
        <ele>1703</ele>
        <time>2018-08-15T12:07:59+02:00</time>
      </trkpt>
      <trkpt lat="45.97915" lon="6.44138">
        <ele>1705</ele>
        <time>2018-08-15T12:08:09+02:00</time>
      </trkpt>
      <trkpt lat="45.97917" lon="6.44126">
        <ele>1708</ele>
        <time>2018-08-15T12:08:29+02:00</time>
      </trkpt>
      <trkpt lat="45.97925" lon="6.44119">
        <ele>1709</ele>
        <time>2018-08-15T12:09:37+02:00</time>
      </trkpt>
      <trkpt lat="45.97932" lon="6.44109">
        <ele>1713</ele>
        <time>2018-08-15T12:09:56+02:00</time>
      </trkpt>
      <trkpt lat="45.97937" lon="6.44098">
        <ele>1719</ele>
        <time>2018-08-15T12:10:35+02:00</time>
      </trkpt>
      <trkpt lat="45.97946" lon="6.44098">
        <ele>1721</ele>
        <time>2018-08-15T12:10:59+02:00</time>
      </trkpt>
      <trkpt lat="45.97955" lon="6.44102">
        <ele>1721</ele>
        <time>2018-08-15T12:11:12+02:00</time>
      </trkpt>
      <trkpt lat="45.97964" lon="6.44099">
        <ele>1721</ele>
        <time>2018-08-15T12:11:27+02:00</time>
      </trkpt>
      <trkpt lat="45.97967" lon="6.44086">
        <ele>1731</ele>
        <time>2018-08-15T12:12:25+02:00</time>
      </trkpt>
      <trkpt lat="45.97963" lon="6.44073">
        <ele>1733</ele>
        <time>2018-08-15T12:12:37+02:00</time>
      </trkpt>
      <trkpt lat="45.97961" lon="6.4406">
        <ele>1735</ele>
        <time>2018-08-15T12:12:50+02:00</time>
      </trkpt>
      <trkpt lat="45.9796" lon="6.44047">
        <ele>1739</ele>
        <time>2018-08-15T12:13:16+02:00</time>
      </trkpt>
      <trkpt lat="45.97952" lon="6.4404">
        <ele>1740</ele>
        <time>2018-08-15T12:13:29+02:00</time>
      </trkpt>
      <trkpt lat="45.97943" lon="6.44033">
        <ele>1740</ele>
        <time>2018-08-15T12:13:45+02:00</time>
      </trkpt>
      <trkpt lat="45.97936" lon="6.44025">
        <ele>1741</ele>
        <time>2018-08-15T12:13:57+02:00</time>
      </trkpt>
      <trkpt lat="45.97931" lon="6.44014">
        <ele>1743</ele>
        <time>2018-08-15T12:14:12+02:00</time>
      </trkpt>
      <trkpt lat="45.97934" lon="6.44001">
        <ele>1746</ele>
        <time>2018-08-15T12:15:09+02:00</time>
      </trkpt>
      <trkpt lat="45.97933" lon="6.43988">
        <ele>1748</ele>
        <time>2018-08-15T12:15:31+02:00</time>
      </trkpt>
      <trkpt lat="45.97941" lon="6.4398">
        <ele>1752</ele>
        <time>2018-08-15T12:16:51+02:00</time>
      </trkpt>
      <trkpt lat="45.97937" lon="6.43968">
        <ele>1756</ele>
        <time>2018-08-15T12:17:16+02:00</time>
      </trkpt>
      <trkpt lat="45.97931" lon="6.43958">
        <ele>1758</ele>
        <time>2018-08-15T12:17:35+02:00</time>
      </trkpt>
      <trkpt lat="45.97923" lon="6.4395">
        <ele>1761</ele>
        <time>2018-08-15T12:17:59+02:00</time>
      </trkpt>
      <trkpt lat="45.97927" lon="6.43939">
        <ele>1763</ele>
        <time>2018-08-15T12:20:17+02:00</time>
      </trkpt>
      <trkpt lat="45.97924" lon="6.43926">
        <ele>1764</ele>
        <time>2018-08-15T12:20:44+02:00</time>
      </trkpt>
      <trkpt lat="45.97921" lon="6.43914">
        <ele>1767</ele>
        <time>2018-08-15T12:21:04+02:00</time>
      </trkpt>
      <trkpt lat="45.97928" lon="6.43905">
        <ele>1767</ele>
        <time>2018-08-15T12:21:22+02:00</time>
      </trkpt>
      <trkpt lat="45.97936" lon="6.43897">
        <ele>1768</ele>
        <time>2018-08-15T12:21:36+02:00</time>
      </trkpt>
      <trkpt lat="45.97945" lon="6.43894">
        <ele>1769</ele>
        <time>2018-08-15T12:21:48+02:00</time>
      </trkpt>
      <trkpt lat="45.97955" lon="6.43892">
        <ele>1772</ele>
        <time>2018-08-15T12:22:01+02:00</time>
      </trkpt>
      <trkpt lat="45.97965" lon="6.43891">
        <ele>1773</ele>
        <time>2018-08-15T12:22:17+02:00</time>
      </trkpt>
      <trkpt lat="45.97974" lon="6.43889">
        <ele>1774</ele>
        <time>2018-08-15T12:22:32+02:00</time>
      </trkpt>
      <trkpt lat="45.97983" lon="6.43884">
        <ele>1777</ele>
        <time>2018-08-15T12:22:54+02:00</time>
      </trkpt>
      <trkpt lat="45.97983" lon="6.4387">
        <ele>1780</ele>
        <time>2018-08-15T12:23:33+02:00</time>
      </trkpt>
      <trkpt lat="45.97974" lon="6.43864">
        <ele>1782</ele>
        <time>2018-08-15T12:23:53+02:00</time>
      </trkpt>
      <trkpt lat="45.97966" lon="6.43858">
        <ele>1784</ele>
        <time>2018-08-15T12:24:05+02:00</time>
      </trkpt>
      <trkpt lat="45.97972" lon="6.43848">
        <ele>1787</ele>
        <time>2018-08-15T12:24:25+02:00</time>
      </trkpt>
      <trkpt lat="45.9798" lon="6.43842">
        <ele>1788</ele>
        <time>2018-08-15T12:25:20+02:00</time>
      </trkpt>
      <trkpt lat="45.97989" lon="6.43833">
        <ele>1791</ele>
        <time>2018-08-15T12:25:40+02:00</time>
      </trkpt>
      <trkpt lat="45.97992" lon="6.4382">
        <ele>1794</ele>
        <time>2018-08-15T12:26:34+02:00</time>
      </trkpt>
      <trkpt lat="45.97985" lon="6.4381">
        <ele>1797</ele>
        <time>2018-08-15T12:26:54+02:00</time>
      </trkpt>
      <trkpt lat="45.97979" lon="6.438">
        <ele>1801</ele>
        <time>2018-08-15T12:27:12+02:00</time>
      </trkpt>
      <trkpt lat="45.97974" lon="6.43789">
        <ele>1805</ele>
        <time>2018-08-15T12:27:57+02:00</time>
      </trkpt>
      <trkpt lat="45.9797" lon="6.43778">
        <ele>1806</ele>
        <time>2018-08-15T12:28:14+02:00</time>
      </trkpt>
      <trkpt lat="45.97967" lon="6.43765">
        <ele>1808</ele>
        <time>2018-08-15T12:28:33+02:00</time>
      </trkpt>
      <trkpt lat="45.97968" lon="6.43752">
        <ele>1808</ele>
        <time>2018-08-15T12:28:45+02:00</time>
      </trkpt>
      <trkpt lat="45.97964" lon="6.4374">
        <ele>1808</ele>
        <time>2018-08-15T12:28:57+02:00</time>
      </trkpt>
      <trkpt lat="45.9796" lon="6.43728">
        <ele>1809</ele>
        <time>2018-08-15T12:29:09+02:00</time>
      </trkpt>
      <trkpt lat="45.97957" lon="6.43715">
        <ele>1811</ele>
        <time>2018-08-15T12:29:25+02:00</time>
      </trkpt>
      <trkpt lat="45.97955" lon="6.43702">
        <ele>1812</ele>
        <time>2018-08-15T12:29:36+02:00</time>
      </trkpt>
      <trkpt lat="45.97955" lon="6.43689">
        <ele>1814</ele>
        <time>2018-08-15T12:29:50+02:00</time>
      </trkpt>
      <trkpt lat="45.97956" lon="6.43676">
        <ele>1815</ele>
        <time>2018-08-15T12:30:03+02:00</time>
      </trkpt>
      <trkpt lat="45.97956" lon="6.43663">
        <ele>1816</ele>
        <time>2018-08-15T12:30:18+02:00</time>
      </trkpt>
      <trkpt lat="45.97954" lon="6.4365">
        <ele>1818</ele>
        <time>2018-08-15T12:30:31+02:00</time>
      </trkpt>
      <trkpt lat="45.97958" lon="6.43637">
        <ele>1820</ele>
        <time>2018-08-15T12:30:47+02:00</time>
      </trkpt>
      <trkpt lat="45.97961" lon="6.43624">
        <ele>1825</ele>
        <time>2018-08-15T12:31:13+02:00</time>
      </trkpt>
      <trkpt lat="45.97959" lon="6.43612">
        <ele>1825</ele>
        <time>2018-08-15T12:38:21+02:00</time>
      </trkpt>
      <trkpt lat="45.97957" lon="6.43599">
        <ele>1827</ele>
        <time>2018-08-15T12:39:40+02:00</time>
      </trkpt>
      <trkpt lat="45.9796" lon="6.43586">
        <ele>1831</ele>
        <time>2018-08-15T12:40:21+02:00</time>
      </trkpt>
      <trkpt lat="45.97955" lon="6.43574">
        <ele>1837</ele>
        <time>2018-08-15T12:41:20+02:00</time>
      </trkpt>
      <trkpt lat="45.97947" lon="6.43567">
        <ele>1840</ele>
        <time>2018-08-15T12:41:36+02:00</time>
      </trkpt>
      <trkpt lat="45.9794" lon="6.43559">
        <ele>1842</ele>
        <time>2018-08-15T12:41:54+02:00</time>
      </trkpt>
      <trkpt lat="45.97931" lon="6.43554">
        <ele>1846</ele>
        <time>2018-08-15T12:42:33+02:00</time>
      </trkpt>
      <trkpt lat="45.97933" lon="6.4354">
        <ele>1850</ele>
        <time>2018-08-15T12:42:55+02:00</time>
      </trkpt>
      <trkpt lat="45.97941" lon="6.43536">
        <ele>1852</ele>
        <time>2018-08-15T12:43:13+02:00</time>
      </trkpt>
      <trkpt lat="45.97951" lon="6.43536">
        <ele>1853</ele>
        <time>2018-08-15T12:43:29+02:00</time>
      </trkpt>
      <trkpt lat="45.97947" lon="6.43524">
        <ele>1859</ele>
        <time>2018-08-15T12:43:54+02:00</time>
      </trkpt>
      <trkpt lat="45.97942" lon="6.43513">
        <ele>1861</ele>
        <time>2018-08-15T12:44:35+02:00</time>
      </trkpt>
      <trkpt lat="45.97936" lon="6.43501">
        <ele>1864</ele>
        <time>2018-08-15T12:44:58+02:00</time>
      </trkpt>
      <trkpt lat="45.97931" lon="6.4349">
        <ele>1867</ele>
        <time>2018-08-15T12:45:17+02:00</time>
      </trkpt>
      <trkpt lat="45.97926" lon="6.43478">
        <ele>1869</ele>
        <time>2018-08-15T12:45:32+02:00</time>
      </trkpt>
      <trkpt lat="45.97922" lon="6.43466">
        <ele>1870</ele>
        <time>2018-08-15T12:45:54+02:00</time>
      </trkpt>
      <trkpt lat="45.97917" lon="6.43454">
        <ele>1875</ele>
        <time>2018-08-15T12:46:46+02:00</time>
      </trkpt>
      <trkpt lat="45.97914" lon="6.43442">
        <ele>1876</ele>
        <time>2018-08-15T12:46:59+02:00</time>
      </trkpt>
      <trkpt lat="45.9791" lon="6.4343">
        <ele>1877</ele>
        <time>2018-08-15T12:47:13+02:00</time>
      </trkpt>
      <trkpt lat="45.97906" lon="6.43418">
        <ele>1878</ele>
        <time>2018-08-15T12:47:26+02:00</time>
      </trkpt>
      <trkpt lat="45.97903" lon="6.43405">
        <ele>1879</ele>
        <time>2018-08-15T12:47:43+02:00</time>
      </trkpt>
      <trkpt lat="45.97902" lon="6.43392">
        <ele>1881</ele>
        <time>2018-08-15T12:47:59+02:00</time>
      </trkpt>
      <trkpt lat="45.97899" lon="6.43379">
        <ele>1884</ele>
        <time>2018-08-15T12:48:36+02:00</time>
      </trkpt>
      <trkpt lat="45.97898" lon="6.43366">
        <ele>1886</ele>
        <time>2018-08-15T12:49:30+02:00</time>
      </trkpt>
      <trkpt lat="45.97895" lon="6.43353">
        <ele>1888</ele>
        <time>2018-08-15T12:49:49+02:00</time>
      </trkpt>
      <trkpt lat="45.97891" lon="6.43341">
        <ele>1888</ele>
        <time>2018-08-15T12:50:03+02:00</time>
      </trkpt>
      <trkpt lat="45.97887" lon="6.43329">
        <ele>1889</ele>
        <time>2018-08-15T12:50:21+02:00</time>
      </trkpt>
      <trkpt lat="45.97886" lon="6.43316">
        <ele>1891</ele>
        <time>2018-08-15T12:50:34+02:00</time>
      </trkpt>
      <trkpt lat="45.97882" lon="6.43305">
        <ele>1893</ele>
        <time>2018-08-15T12:50:45+02:00</time>
      </trkpt>
      <trkpt lat="45.97879" lon="6.43292">
        <ele>1893</ele>
        <time>2018-08-15T12:50:59+02:00</time>
      </trkpt>
      <trkpt lat="45.9788" lon="6.43279">
        <ele>1893</ele>
        <time>2018-08-15T12:51:14+02:00</time>
      </trkpt>
      <trkpt lat="45.97878" lon="6.43265">
        <ele>1894</ele>
        <time>2018-08-15T12:51:30+02:00</time>
      </trkpt>
      <trkpt lat="45.97875" lon="6.43253">
        <ele>1896</ele>
        <time>2018-08-15T12:51:47+02:00</time>
      </trkpt>
      <trkpt lat="45.9787" lon="6.43241">
        <ele>1898</ele>
        <time>2018-08-15T12:52:10+02:00</time>
      </trkpt>
      <trkpt lat="45.97868" lon="6.43228">
        <ele>1902</ele>
        <time>2018-08-15T12:53:32+02:00</time>
      </trkpt>
      <trkpt lat="45.97861" lon="6.43219">
        <ele>1904</ele>
        <time>2018-08-15T12:53:48+02:00</time>
      </trkpt>
      <trkpt lat="45.97853" lon="6.43211">
        <ele>1907</ele>
        <time>2018-08-15T12:54:05+02:00</time>
      </trkpt>
      <trkpt lat="45.97846" lon="6.43202">
        <ele>1909</ele>
        <time>2018-08-15T12:54:51+02:00</time>
      </trkpt>
      <trkpt lat="45.97838" lon="6.43196">
        <ele>1911</ele>
        <time>2018-08-15T12:55:33+02:00</time>
      </trkpt>
      <trkpt lat="45.97839" lon="6.43183">
        <ele>1912</ele>
        <time>2018-08-15T12:56:07+02:00</time>
      </trkpt>
      <trkpt lat="45.97845" lon="6.43174">
        <ele>1915</ele>
        <time>2018-08-15T12:57:44+02:00</time>
      </trkpt>
      <trkpt lat="45.97837" lon="6.43168">
        <ele>1922</ele>
        <time>2018-08-15T12:58:12+02:00</time>
      </trkpt>
      <trkpt lat="45.97828" lon="6.43167">
        <ele>1928</ele>
        <time>2018-08-15T12:58:32+02:00</time>
      </trkpt>
      <trkpt lat="45.97824" lon="6.43154">
        <ele>1931</ele>
        <time>2018-08-15T12:58:48+02:00</time>
      </trkpt>
      <trkpt lat="45.97829" lon="6.43143">
        <ele>1932</ele>
        <time>2018-08-15T13:00:15+02:00</time>
      </trkpt>
      <trkpt lat="45.97835" lon="6.43131">
        <ele>1933</ele>
        <time>2018-08-15T13:00:41+02:00</time>
      </trkpt>
      <trkpt lat="45.97844" lon="6.43131">
        <ele>1939</ele>
        <time>2018-08-15T13:01:27+02:00</time>
      </trkpt>
      <trkpt lat="45.97853" lon="6.43134">
        <ele>1941</ele>
        <time>2018-08-15T13:02:26+02:00</time>
      </trkpt>
      <trkpt lat="45.97862" lon="6.43135">
        <ele>1944</ele>
        <time>2018-08-15T13:03:24+02:00</time>
      </trkpt>
      <trkpt lat="45.97871" lon="6.43132">
        <ele>1947</ele>
        <time>2018-08-15T13:04:41+02:00</time>
      </trkpt>
      <trkpt lat="45.97881" lon="6.43132">
        <ele>1949</ele>
        <time>2018-08-15T13:04:56+02:00</time>
      </trkpt>
      <trkpt lat="45.9789" lon="6.43135">
        <ele>1951</ele>
        <time>2018-08-15T13:05:12+02:00</time>
      </trkpt>
      <trkpt lat="45.97898" lon="6.43143">
        <ele>1954</ele>
        <time>2018-08-15T13:05:25+02:00</time>
      </trkpt>
      <trkpt lat="45.97906" lon="6.43151">
        <ele>1957</ele>
        <time>2018-08-15T13:05:38+02:00</time>
      </trkpt>
      <trkpt lat="45.97913" lon="6.43159">
        <ele>1957</ele>
        <time>2018-08-15T13:05:55+02:00</time>
      </trkpt>
      <trkpt lat="45.9792" lon="6.43169">
        <ele>1957</ele>
        <time>2018-08-15T13:06:09+02:00</time>
      </trkpt>
      <trkpt lat="45.97928" lon="6.43176">
        <ele>1959</ele>
        <time>2018-08-15T13:06:49+02:00</time>
      </trkpt>
      <trkpt lat="45.97935" lon="6.43184">
        <ele>1959</ele>
        <time>2018-08-15T13:07:07+02:00</time>
      </trkpt>
      <trkpt lat="45.97939" lon="6.43195">
        <ele>1958</ele>
        <time>2018-08-15T13:07:22+02:00</time>
      </trkpt>
      <trkpt lat="45.97947" lon="6.43204">
        <ele>1957</ele>
        <time>2018-08-15T13:07:39+02:00</time>
      </trkpt>
      <trkpt lat="45.97953" lon="6.43215">
        <ele>1957</ele>
        <time>2018-08-15T13:07:58+02:00</time>
      </trkpt>
      <trkpt lat="45.97958" lon="6.43227">
        <ele>1960</ele>
        <time>2018-08-15T13:08:19+02:00</time>
      </trkpt>
      <trkpt lat="45.97964" lon="6.43238">
        <ele>1962</ele>
        <time>2018-08-15T13:08:33+02:00</time>
      </trkpt>
      <trkpt lat="45.97969" lon="6.4325">
        <ele>1963</ele>
        <time>2018-08-15T13:08:45+02:00</time>
      </trkpt>
      <trkpt lat="45.97973" lon="6.43262">
        <ele>1962</ele>
        <time>2018-08-15T13:08:59+02:00</time>
      </trkpt>
      <trkpt lat="45.97977" lon="6.43274">
        <ele>1963</ele>
        <time>2018-08-15T13:09:14+02:00</time>
      </trkpt>
      <trkpt lat="45.97984" lon="6.43283">
        <ele>1964</ele>
        <time>2018-08-15T13:09:26+02:00</time>
      </trkpt>
      <trkpt lat="45.97991" lon="6.43291">
        <ele>1966</ele>
        <time>2018-08-15T13:09:37+02:00</time>
      </trkpt>
      <trkpt lat="45.97998" lon="6.43302">
        <ele>1966</ele>
        <time>2018-08-15T13:09:48+02:00</time>
      </trkpt>
      <trkpt lat="45.98004" lon="6.43312">
        <ele>1967</ele>
        <time>2018-08-15T13:09:59+02:00</time>
      </trkpt>
      <trkpt lat="45.9801" lon="6.43322">
        <ele>1967</ele>
        <time>2018-08-15T13:10:10+02:00</time>
      </trkpt>
      <trkpt lat="45.98012" lon="6.43335">
        <ele>1965</ele>
        <time>2018-08-15T13:10:21+02:00</time>
      </trkpt>
      <trkpt lat="45.98019" lon="6.43343">
        <ele>1965</ele>
        <time>2018-08-15T13:10:33+02:00</time>
      </trkpt>
      <trkpt lat="45.98024" lon="6.43354">
        <ele>1965</ele>
        <time>2018-08-15T13:10:43+02:00</time>
      </trkpt>
      <trkpt lat="45.98031" lon="6.43364">
        <ele>1965</ele>
        <time>2018-08-15T13:10:54+02:00</time>
      </trkpt>
      <trkpt lat="45.98038" lon="6.43374">
        <ele>1968</ele>
        <time>2018-08-15T13:11:08+02:00</time>
      </trkpt>
      <trkpt lat="45.98044" lon="6.43385">
        <ele>1967</ele>
        <time>2018-08-15T13:11:27+02:00</time>
      </trkpt>
      <trkpt lat="45.98052" lon="6.43392">
        <ele>1966</ele>
        <time>2018-08-15T13:11:38+02:00</time>
      </trkpt>
      <trkpt lat="45.98061" lon="6.43395">
        <ele>1966</ele>
        <time>2018-08-15T13:11:48+02:00</time>
      </trkpt>
      <trkpt lat="45.9807" lon="6.43402">
        <ele>1966</ele>
        <time>2018-08-15T13:11:59+02:00</time>
      </trkpt>
      <trkpt lat="45.98078" lon="6.43407">
        <ele>1965</ele>
        <time>2018-08-15T13:12:11+02:00</time>
      </trkpt>
      <trkpt lat="45.98085" lon="6.43415">
        <ele>1965</ele>
        <time>2018-08-15T13:12:23+02:00</time>
      </trkpt>
      <trkpt lat="45.98095" lon="6.4342">
        <ele>1965</ele>
        <time>2018-08-15T13:12:35+02:00</time>
      </trkpt>
      <trkpt lat="45.98104" lon="6.43423">
        <ele>1962</ele>
        <time>2018-08-15T13:12:50+02:00</time>
      </trkpt>
      <trkpt lat="45.98112" lon="6.4343">
        <ele>1963</ele>
        <time>2018-08-15T13:13:01+02:00</time>
      </trkpt>
      <trkpt lat="45.98117" lon="6.4344">
        <ele>1963</ele>
        <time>2018-08-15T13:13:13+02:00</time>
      </trkpt>
      <trkpt lat="45.98125" lon="6.43447">
        <ele>1963</ele>
        <time>2018-08-15T13:13:26+02:00</time>
      </trkpt>
      <trkpt lat="45.98132" lon="6.43456">
        <ele>1964</ele>
        <time>2018-08-15T13:13:39+02:00</time>
      </trkpt>
      <trkpt lat="45.98141" lon="6.43461">
        <ele>1964</ele>
        <time>2018-08-15T13:13:50+02:00</time>
      </trkpt>
      <trkpt lat="45.98149" lon="6.43467">
        <ele>1965</ele>
        <time>2018-08-15T13:14:02+02:00</time>
      </trkpt>
      <trkpt lat="45.98158" lon="6.43472">
        <ele>1964</ele>
        <time>2018-08-15T13:14:25+02:00</time>
      </trkpt>
      <trkpt lat="45.98163" lon="6.43483">
        <ele>1963</ele>
        <time>2018-08-15T13:14:38+02:00</time>
      </trkpt>
      <trkpt lat="45.98168" lon="6.43495">
        <ele>1962</ele>
        <time>2018-08-15T13:15:01+02:00</time>
      </trkpt>
      <trkpt lat="45.98176" lon="6.43501">
        <ele>1960</ele>
        <time>2018-08-15T13:15:27+02:00</time>
      </trkpt>
      <trkpt lat="45.98183" lon="6.4351">
        <ele>1960</ele>
        <time>2018-08-15T13:15:39+02:00</time>
      </trkpt>
      <trkpt lat="45.9819" lon="6.4352">
        <ele>1959</ele>
        <time>2018-08-15T13:15:54+02:00</time>
      </trkpt>
      <trkpt lat="45.98198" lon="6.43529">
        <ele>1959</ele>
        <time>2018-08-15T13:16:14+02:00</time>
      </trkpt>
      <trkpt lat="45.98203" lon="6.43539">
        <ele>1960</ele>
        <time>2018-08-15T13:16:35+02:00</time>
      </trkpt>
      <trkpt lat="45.98209" lon="6.43549">
        <ele>1965</ele>
        <time>2018-08-15T13:18:49+02:00</time>
      </trkpt>
      <trkpt lat="45.98215" lon="6.43559">
        <ele>1965</ele>
        <time>2018-08-15T13:19:10+02:00</time>
      </trkpt>
      <trkpt lat="45.98221" lon="6.4357">
        <ele>1967</ele>
        <time>2018-08-15T13:19:55+02:00</time>
      </trkpt>
      <trkpt lat="45.98226" lon="6.43581">
        <ele>1969</ele>
        <time>2018-08-15T13:20:15+02:00</time>
      </trkpt>
      <trkpt lat="45.9823" lon="6.43593">
        <ele>1972</ele>
        <time>2018-08-15T13:20:36+02:00</time>
      </trkpt>
      <trkpt lat="45.98236" lon="6.43603">
        <ele>1976</ele>
        <time>2018-08-15T13:21:54+02:00</time>
      </trkpt>
      <trkpt lat="45.98241" lon="6.43614">
        <ele>1981</ele>
        <time>2018-08-15T13:22:18+02:00</time>
      </trkpt>
      <trkpt lat="45.98246" lon="6.43625">
        <ele>1982</ele>
        <time>2018-08-15T13:22:52+02:00</time>
      </trkpt>
      <trkpt lat="45.98251" lon="6.43636">
        <ele>1983</ele>
        <time>2018-08-15T13:23:24+02:00</time>
      </trkpt>
      <trkpt lat="45.98256" lon="6.43648">
        <ele>1984</ele>
        <time>2018-08-15T13:23:46+02:00</time>
      </trkpt>
      <trkpt lat="45.98261" lon="6.43659">
        <ele>1985</ele>
        <time>2018-08-15T13:24:07+02:00</time>
      </trkpt>
      <trkpt lat="45.98267" lon="6.43669">
        <ele>1987</ele>
        <time>2018-08-15T13:24:22+02:00</time>
      </trkpt>
      <trkpt lat="45.9827" lon="6.43683">
        <ele>1987</ele>
        <time>2018-08-15T13:24:47+02:00</time>
      </trkpt>
      <trkpt lat="45.98268" lon="6.43696">
        <ele>1983</ele>
        <time>2018-08-15T13:25:07+02:00</time>
      </trkpt>
      <trkpt lat="45.98267" lon="6.43709">
        <ele>1980</ele>
        <time>2018-08-15T13:25:40+02:00</time>
      </trkpt>
      <trkpt lat="45.9827" lon="6.43723">
        <ele>1978</ele>
        <time>2018-08-15T13:26:01+02:00</time>
      </trkpt>
      <trkpt lat="45.98274" lon="6.43735">
        <ele>1976</ele>
        <time>2018-08-15T13:26:19+02:00</time>
      </trkpt>
      <trkpt lat="45.98278" lon="6.43748">
        <ele>1974</ele>
        <time>2018-08-15T13:26:36+02:00</time>
      </trkpt>
      <trkpt lat="45.98283" lon="6.43759">
        <ele>1974</ele>
        <time>2018-08-15T13:26:50+02:00</time>
      </trkpt>
      <trkpt lat="45.98288" lon="6.43769">
        <ele>1974</ele>
        <time>2018-08-15T13:27:03+02:00</time>
      </trkpt>
      <trkpt lat="45.98294" lon="6.4378">
        <ele>1973</ele>
        <time>2018-08-15T13:27:16+02:00</time>
      </trkpt>
      <trkpt lat="45.983" lon="6.43789">
        <ele>1973</ele>
        <time>2018-08-15T13:27:29+02:00</time>
      </trkpt>
      <trkpt lat="45.98305" lon="6.43801">
        <ele>1974</ele>
        <time>2018-08-15T13:27:42+02:00</time>
      </trkpt>
      <trkpt lat="45.98311" lon="6.43811">
        <ele>1974</ele>
        <time>2018-08-15T13:27:53+02:00</time>
      </trkpt>
      <trkpt lat="45.98318" lon="6.4382">
        <ele>1976</ele>
        <time>2018-08-15T13:28:06+02:00</time>
      </trkpt>
      <trkpt lat="45.98328" lon="6.43827">
        <ele>1975</ele>
        <time>2018-08-15T13:29:02+02:00</time>
      </trkpt>
      <trkpt lat="45.98335" lon="6.43836">
        <ele>1974</ele>
        <time>2018-08-15T13:29:17+02:00</time>
      </trkpt>
      <trkpt lat="45.98342" lon="6.43845">
        <ele>1972</ele>
        <time>2018-08-15T13:29:34+02:00</time>
      </trkpt>
      <trkpt lat="45.98351" lon="6.43849">
        <ele>1965</ele>
        <time>2018-08-15T13:30:33+02:00</time>
      </trkpt>
      <trkpt lat="45.98357" lon="6.43859">
        <ele>1963</ele>
        <time>2018-08-15T13:31:19+02:00</time>
      </trkpt>
      <trkpt lat="45.98362" lon="6.43871">
        <ele>1961</ele>
        <time>2018-08-15T13:32:00+02:00</time>
      </trkpt>
      <trkpt lat="45.98368" lon="6.43882">
        <ele>1959</ele>
        <time>2018-08-15T13:32:21+02:00</time>
      </trkpt>
      <trkpt lat="45.98376" lon="6.43888">
        <ele>1957</ele>
        <time>2018-08-15T13:33:05+02:00</time>
      </trkpt>
      <trkpt lat="45.98385" lon="6.43889">
        <ele>1956</ele>
        <time>2018-08-15T13:33:29+02:00</time>
      </trkpt>
      <trkpt lat="45.98384" lon="6.43876">
        <ele>1946</ele>
        <time>2018-08-15T13:34:20+02:00</time>
      </trkpt>
      <trkpt lat="45.98391" lon="6.43869">
        <ele>1943</ele>
        <time>2018-08-15T13:36:13+02:00</time>
      </trkpt>
      <trkpt lat="45.98401" lon="6.43867">
        <ele>1939</ele>
        <time>2018-08-15T13:36:54+02:00</time>
      </trkpt>
      <trkpt lat="45.98411" lon="6.43868">
        <ele>1937</ele>
        <time>2018-08-15T13:37:26+02:00</time>
      </trkpt>
      <trkpt lat="45.9842" lon="6.4387">
        <ele>1934</ele>
        <time>2018-08-15T13:37:50+02:00</time>
      </trkpt>
      <trkpt lat="45.9843" lon="6.43869">
        <ele>1931</ele>
        <time>2018-08-15T13:38:16+02:00</time>
      </trkpt>
      <trkpt lat="45.98431" lon="6.43856">
        <ele>1925</ele>
        <time>2018-08-15T13:39:00+02:00</time>
      </trkpt>
      <trkpt lat="45.98439" lon="6.43852">
        <ele>1922</ele>
        <time>2018-08-15T13:39:33+02:00</time>
      </trkpt>
      <trkpt lat="45.98449" lon="6.43851">
        <ele>1920</ele>
        <time>2018-08-15T13:39:53+02:00</time>
      </trkpt>
      <trkpt lat="45.98459" lon="6.43853">
        <ele>1919</ele>
        <time>2018-08-15T13:40:14+02:00</time>
      </trkpt>
      <trkpt lat="45.98468" lon="6.43854">
        <ele>1916</ele>
        <time>2018-08-15T13:40:33+02:00</time>
      </trkpt>
      <trkpt lat="45.98477" lon="6.43858">
        <ele>1915</ele>
        <time>2018-08-15T13:40:49+02:00</time>
      </trkpt>
      <trkpt lat="45.98486" lon="6.43862">
        <ele>1914</ele>
        <time>2018-08-15T13:41:00+02:00</time>
      </trkpt>
      <trkpt lat="45.98493" lon="6.4387">
        <ele>1915</ele>
        <time>2018-08-15T13:41:10+02:00</time>
      </trkpt>
      <trkpt lat="45.98502" lon="6.43875">
        <ele>1912</ele>
        <time>2018-08-15T13:41:23+02:00</time>
      </trkpt>
      <trkpt lat="45.98509" lon="6.43887">
        <ele>1911</ele>
        <time>2018-08-15T13:41:39+02:00</time>
      </trkpt>
      <trkpt lat="45.98515" lon="6.43897">
        <ele>1910</ele>
        <time>2018-08-15T13:41:56+02:00</time>
      </trkpt>
      <trkpt lat="45.9852" lon="6.43909">
        <ele>1910</ele>
        <time>2018-08-15T13:42:16+02:00</time>
      </trkpt>
      <trkpt lat="45.98528" lon="6.43914">
        <ele>1904</ele>
        <time>2018-08-15T13:43:23+02:00</time>
      </trkpt>
      <trkpt lat="45.98537" lon="6.4392">
        <ele>1899</ele>
        <time>2018-08-15T13:43:57+02:00</time>
      </trkpt>
      <trkpt lat="45.98546" lon="6.43923">
        <ele>1894</ele>
        <time>2018-08-15T13:44:24+02:00</time>
      </trkpt>
      <trkpt lat="45.98553" lon="6.43933">
        <ele>1893</ele>
        <time>2018-08-15T13:45:06+02:00</time>
      </trkpt>
      <trkpt lat="45.9856" lon="6.43942">
        <ele>1887</ele>
        <time>2018-08-15T13:45:50+02:00</time>
      </trkpt>
      <trkpt lat="45.98567" lon="6.43951">
        <ele>1886</ele>
        <time>2018-08-15T13:46:08+02:00</time>
      </trkpt>
      <trkpt lat="45.98575" lon="6.43958">
        <ele>1884</ele>
        <time>2018-08-15T13:46:36+02:00</time>
      </trkpt>
      <trkpt lat="45.98583" lon="6.43966">
        <ele>1880</ele>
        <time>2018-08-15T13:46:58+02:00</time>
      </trkpt>
      <trkpt lat="45.9859" lon="6.43973">
        <ele>1878</ele>
        <time>2018-08-15T13:47:08+02:00</time>
      </trkpt>
      <trkpt lat="45.986" lon="6.43972">
        <ele>1878</ele>
        <time>2018-08-15T13:47:37+02:00</time>
      </trkpt>
      <trkpt lat="45.98619" lon="6.43938">
        <ele>1891</ele>
        <time>2018-08-15T13:59:12+02:00</time>
      </trkpt>
      <trkpt lat="45.98604" lon="6.4397">
        <ele>1883</ele>
        <time>2018-08-15T13:59:13+02:00</time>
      </trkpt>
      <trkpt lat="45.98595" lon="6.43972">
        <ele>1878</ele>
        <time>2018-08-15T14:11:14+02:00</time>
      </trkpt>
      <trkpt lat="45.98596" lon="6.43985">
        <ele>1877</ele>
        <time>2018-08-15T14:11:27+02:00</time>
      </trkpt>
      <trkpt lat="45.98598" lon="6.43999">
        <ele>1875</ele>
        <time>2018-08-15T14:11:41+02:00</time>
      </trkpt>
      <trkpt lat="45.98603" lon="6.44009">
        <ele>1874</ele>
        <time>2018-08-15T14:11:57+02:00</time>
      </trkpt>
      <trkpt lat="45.98607" lon="6.44021">
        <ele>1872</ele>
        <time>2018-08-15T14:12:22+02:00</time>
      </trkpt>
      <trkpt lat="45.98611" lon="6.44033">
        <ele>1869</ele>
        <time>2018-08-15T14:12:42+02:00</time>
      </trkpt>
      <trkpt lat="45.98617" lon="6.44043">
        <ele>1870</ele>
        <time>2018-08-15T14:12:57+02:00</time>
      </trkpt>
      <trkpt lat="45.98623" lon="6.44054">
        <ele>1867</ele>
        <time>2018-08-15T14:13:11+02:00</time>
      </trkpt>
      <trkpt lat="45.9863" lon="6.44062">
        <ele>1863</ele>
        <time>2018-08-15T14:13:43+02:00</time>
      </trkpt>
      <trkpt lat="45.98632" lon="6.44075">
        <ele>1860</ele>
        <time>2018-08-15T14:14:15+02:00</time>
      </trkpt>
      <trkpt lat="45.98638" lon="6.44087">
        <ele>1858</ele>
        <time>2018-08-15T14:14:48+02:00</time>
      </trkpt>
      <trkpt lat="45.9864" lon="6.441">
        <ele>1856</ele>
        <time>2018-08-15T14:15:08+02:00</time>
      </trkpt>
      <trkpt lat="45.98643" lon="6.44113">
        <ele>1854</ele>
        <time>2018-08-15T14:15:28+02:00</time>
      </trkpt>
      <trkpt lat="45.98645" lon="6.44126">
        <ele>1854</ele>
        <time>2018-08-15T14:15:38+02:00</time>
      </trkpt>
      <trkpt lat="45.9865" lon="6.44139">
        <ele>1854</ele>
        <time>2018-08-15T14:15:52+02:00</time>
      </trkpt>
      <trkpt lat="45.98656" lon="6.4415">
        <ele>1852</ele>
        <time>2018-08-15T14:16:04+02:00</time>
      </trkpt>
      <trkpt lat="45.98663" lon="6.44157">
        <ele>1848</ele>
        <time>2018-08-15T14:16:21+02:00</time>
      </trkpt>
      <trkpt lat="45.98671" lon="6.44163">
        <ele>1845</ele>
        <time>2018-08-15T14:16:47+02:00</time>
      </trkpt>
      <trkpt lat="45.9868" lon="6.44167">
        <ele>1843</ele>
        <time>2018-08-15T14:17:08+02:00</time>
      </trkpt>
      <trkpt lat="45.98689" lon="6.44173">
        <ele>1841</ele>
        <time>2018-08-15T14:17:36+02:00</time>
      </trkpt>
      <trkpt lat="45.98698" lon="6.44178">
        <ele>1839</ele>
        <time>2018-08-15T14:17:49+02:00</time>
      </trkpt>
      <trkpt lat="45.98707" lon="6.44182">
        <ele>1840</ele>
        <time>2018-08-15T14:17:59+02:00</time>
      </trkpt>
      <trkpt lat="45.98716" lon="6.44183">
        <ele>1840</ele>
        <time>2018-08-15T14:18:25+02:00</time>
      </trkpt>
      <trkpt lat="45.98725" lon="6.4419">
        <ele>1839</ele>
        <time>2018-08-15T14:18:39+02:00</time>
      </trkpt>
      <trkpt lat="45.98733" lon="6.44196">
        <ele>1841</ele>
        <time>2018-08-15T14:19:15+02:00</time>
      </trkpt>
      <trkpt lat="45.98741" lon="6.44203">
        <ele>1840</ele>
        <time>2018-08-15T14:19:35+02:00</time>
      </trkpt>
      <trkpt lat="45.9875" lon="6.44208">
        <ele>1840</ele>
        <time>2018-08-15T14:19:54+02:00</time>
      </trkpt>
      <trkpt lat="45.9876" lon="6.44204">
        <ele>1836</ele>
        <time>2018-08-15T14:20:21+02:00</time>
      </trkpt>
      <trkpt lat="45.98769" lon="6.44207">
        <ele>1833</ele>
        <time>2018-08-15T14:20:48+02:00</time>
      </trkpt>
      <trkpt lat="45.98778" lon="6.44204">
        <ele>1830</ele>
        <time>2018-08-15T14:21:06+02:00</time>
      </trkpt>
      <trkpt lat="45.98787" lon="6.44201">
        <ele>1830</ele>
        <time>2018-08-15T14:21:26+02:00</time>
      </trkpt>
      <trkpt lat="45.98796" lon="6.44195">
        <ele>1826</ele>
        <time>2018-08-15T14:21:49+02:00</time>
      </trkpt>
      <trkpt lat="45.98804" lon="6.4419">
        <ele>1825</ele>
        <time>2018-08-15T14:22:06+02:00</time>
      </trkpt>
      <trkpt lat="45.98813" lon="6.44184">
        <ele>1824</ele>
        <time>2018-08-15T14:22:18+02:00</time>
      </trkpt>
      <trkpt lat="45.98821" lon="6.44178">
        <ele>1823</ele>
        <time>2018-08-15T14:22:32+02:00</time>
      </trkpt>
      <trkpt lat="45.9883" lon="6.44176">
        <ele>1820</ele>
        <time>2018-08-15T14:22:43+02:00</time>
      </trkpt>
      <trkpt lat="45.98839" lon="6.44171">
        <ele>1818</ele>
        <time>2018-08-15T14:22:58+02:00</time>
      </trkpt>
      <trkpt lat="45.98847" lon="6.44165">
        <ele>1816</ele>
        <time>2018-08-15T14:23:14+02:00</time>
      </trkpt>
      <trkpt lat="45.98854" lon="6.44156">
        <ele>1813</ele>
        <time>2018-08-15T14:23:45+02:00</time>
      </trkpt>
      <trkpt lat="45.98862" lon="6.4415">
        <ele>1811</ele>
        <time>2018-08-15T14:24:09+02:00</time>
      </trkpt>
      <trkpt lat="45.9887" lon="6.44142">
        <ele>1808</ele>
        <time>2018-08-15T14:24:33+02:00</time>
      </trkpt>
      <trkpt lat="45.98878" lon="6.44135">
        <ele>1807</ele>
        <time>2018-08-15T14:24:51+02:00</time>
      </trkpt>
      <trkpt lat="45.98886" lon="6.4413">
        <ele>1803</ele>
        <time>2018-08-15T14:25:06+02:00</time>
      </trkpt>
      <trkpt lat="45.98892" lon="6.4412">
        <ele>1802</ele>
        <time>2018-08-15T14:25:21+02:00</time>
      </trkpt>
      <trkpt lat="45.98898" lon="6.4411">
        <ele>1800</ele>
        <time>2018-08-15T14:25:43+02:00</time>
      </trkpt>
      <trkpt lat="45.98898" lon="6.44096">
        <ele>1800</ele>
        <time>2018-08-15T14:25:58+02:00</time>
      </trkpt>
      <trkpt lat="45.98901" lon="6.44083">
        <ele>1799</ele>
        <time>2018-08-15T14:26:09+02:00</time>
      </trkpt>
      <trkpt lat="45.98905" lon="6.44071">
        <ele>1798</ele>
        <time>2018-08-15T14:26:22+02:00</time>
      </trkpt>
      <trkpt lat="45.98911" lon="6.44061">
        <ele>1797</ele>
        <time>2018-08-15T14:26:35+02:00</time>
      </trkpt>
      <trkpt lat="45.9892" lon="6.44055">
        <ele>1796</ele>
        <time>2018-08-15T14:26:49+02:00</time>
      </trkpt>
      <trkpt lat="45.98928" lon="6.44049">
        <ele>1794</ele>
        <time>2018-08-15T14:27:04+02:00</time>
      </trkpt>
      <trkpt lat="45.98928" lon="6.44036">
        <ele>1793</ele>
        <time>2018-08-15T14:27:16+02:00</time>
      </trkpt>
      <trkpt lat="45.98921" lon="6.44027">
        <ele>1792</ele>
        <time>2018-08-15T14:27:26+02:00</time>
      </trkpt>
      <trkpt lat="45.98915" lon="6.44018">
        <ele>1793</ele>
        <time>2018-08-15T14:27:37+02:00</time>
      </trkpt>
      <trkpt lat="45.98911" lon="6.44006">
        <ele>1793</ele>
        <time>2018-08-15T14:27:49+02:00</time>
      </trkpt>
      <trkpt lat="45.98909" lon="6.43993">
        <ele>1795</ele>
        <time>2018-08-15T14:28:02+02:00</time>
      </trkpt>
      <trkpt lat="45.98907" lon="6.4398">
        <ele>1797</ele>
        <time>2018-08-15T14:28:16+02:00</time>
      </trkpt>
      <trkpt lat="45.98908" lon="6.43966">
        <ele>1797</ele>
        <time>2018-08-15T14:28:31+02:00</time>
      </trkpt>
      <trkpt lat="45.98913" lon="6.43955">
        <ele>1800</ele>
        <time>2018-08-15T14:28:45+02:00</time>
      </trkpt>
      <trkpt lat="45.98917" lon="6.43944">
        <ele>1800</ele>
        <time>2018-08-15T14:29:00+02:00</time>
      </trkpt>
      <trkpt lat="45.98918" lon="6.43929">
        <ele>1803</ele>
        <time>2018-08-15T14:29:18+02:00</time>
      </trkpt>
      <trkpt lat="45.98918" lon="6.43916">
        <ele>1806</ele>
        <time>2018-08-15T14:29:32+02:00</time>
      </trkpt>
      <trkpt lat="45.98917" lon="6.43903">
        <ele>1808</ele>
        <time>2018-08-15T14:29:46+02:00</time>
      </trkpt>
      <trkpt lat="45.98917" lon="6.43889">
        <ele>1810</ele>
        <time>2018-08-15T14:29:59+02:00</time>
      </trkpt>
      <trkpt lat="45.98916" lon="6.43876">
        <ele>1815</ele>
        <time>2018-08-15T14:30:13+02:00</time>
      </trkpt>
      <trkpt lat="45.98915" lon="6.43863">
        <ele>1817</ele>
        <time>2018-08-15T14:31:15+02:00</time>
      </trkpt>
      <trkpt lat="45.9891" lon="6.43851">
        <ele>1817</ele>
        <time>2018-08-15T14:31:28+02:00</time>
      </trkpt>
      <trkpt lat="45.98906" lon="6.43839">
        <ele>1816</ele>
        <time>2018-08-15T14:31:40+02:00</time>
      </trkpt>
      <trkpt lat="45.98906" lon="6.43826">
        <ele>1817</ele>
        <time>2018-08-15T14:31:51+02:00</time>
      </trkpt>
      <trkpt lat="45.9891" lon="6.43813">
        <ele>1815</ele>
        <time>2018-08-15T14:32:02+02:00</time>
      </trkpt>
      <trkpt lat="45.98913" lon="6.438">
        <ele>1815</ele>
        <time>2018-08-15T14:32:16+02:00</time>
      </trkpt>
      <trkpt lat="45.9891" lon="6.43788">
        <ele>1817</ele>
        <time>2018-08-15T14:34:51+02:00</time>
      </trkpt>
      <trkpt lat="45.98907" lon="6.43774">
        <ele>1820</ele>
        <time>2018-08-15T14:35:05+02:00</time>
      </trkpt>
      <trkpt lat="45.98903" lon="6.43762">
        <ele>1822</ele>
        <time>2018-08-15T14:35:19+02:00</time>
      </trkpt>
      <trkpt lat="45.98897" lon="6.43752">
        <ele>1824</ele>
        <time>2018-08-15T14:35:32+02:00</time>
      </trkpt>
      <trkpt lat="45.98894" lon="6.43739">
        <ele>1824</ele>
        <time>2018-08-15T14:35:46+02:00</time>
      </trkpt>
      <trkpt lat="45.98893" lon="6.43726">
        <ele>1824</ele>
        <time>2018-08-15T14:35:59+02:00</time>
      </trkpt>
      <trkpt lat="45.9889" lon="6.43714">
        <ele>1825</ele>
        <time>2018-08-15T14:36:12+02:00</time>
      </trkpt>
      <trkpt lat="45.98889" lon="6.43701">
        <ele>1827</ele>
        <time>2018-08-15T14:36:27+02:00</time>
      </trkpt>
      <trkpt lat="45.98896" lon="6.43691">
        <ele>1829</ele>
        <time>2018-08-15T14:36:41+02:00</time>
      </trkpt>
      <trkpt lat="45.98893" lon="6.43678">
        <ele>1832</ele>
        <time>2018-08-15T14:38:11+02:00</time>
      </trkpt>
      <trkpt lat="45.98888" lon="6.43666">
        <ele>1833</ele>
        <time>2018-08-15T14:38:22+02:00</time>
      </trkpt>
      <trkpt lat="45.98882" lon="6.43655">
        <ele>1831</ele>
        <time>2018-08-15T14:38:33+02:00</time>
      </trkpt>
      <trkpt lat="45.98875" lon="6.43646">
        <ele>1831</ele>
        <time>2018-08-15T14:38:44+02:00</time>
      </trkpt>
      <trkpt lat="45.98869" lon="6.43635">
        <ele>1831</ele>
        <time>2018-08-15T14:38:54+02:00</time>
      </trkpt>
      <trkpt lat="45.98865" lon="6.43623">
        <ele>1833</ele>
        <time>2018-08-15T14:39:03+02:00</time>
      </trkpt>
      <trkpt lat="45.98861" lon="6.43611">
        <ele>1835</ele>
        <time>2018-08-15T14:39:14+02:00</time>
      </trkpt>
      <trkpt lat="45.98856" lon="6.436">
        <ele>1835</ele>
        <time>2018-08-15T14:39:25+02:00</time>
      </trkpt>
      <trkpt lat="45.98854" lon="6.43587">
        <ele>1836</ele>
        <time>2018-08-15T14:39:36+02:00</time>
      </trkpt>
      <trkpt lat="45.9885" lon="6.43575">
        <ele>1836</ele>
        <time>2018-08-15T14:39:44+02:00</time>
      </trkpt>
      <trkpt lat="45.98847" lon="6.43563">
        <ele>1837</ele>
        <time>2018-08-15T14:39:52+02:00</time>
      </trkpt>
      <trkpt lat="45.98843" lon="6.4355">
        <ele>1836</ele>
        <time>2018-08-15T14:40:02+02:00</time>
      </trkpt>
      <trkpt lat="45.98839" lon="6.43538">
        <ele>1833</ele>
        <time>2018-08-15T14:40:20+02:00</time>
      </trkpt>
      <trkpt lat="45.98834" lon="6.43526">
        <ele>1834</ele>
        <time>2018-08-15T14:40:30+02:00</time>
      </trkpt>
      <trkpt lat="45.98834" lon="6.43513">
        <ele>1833</ele>
        <time>2018-08-15T14:40:39+02:00</time>
      </trkpt>
      <trkpt lat="45.98832" lon="6.43499">
        <ele>1835</ele>
        <time>2018-08-15T14:40:49+02:00</time>
      </trkpt>
      <trkpt lat="45.98824" lon="6.43493">
        <ele>1834</ele>
        <time>2018-08-15T14:41:01+02:00</time>
      </trkpt>
      <trkpt lat="45.98815" lon="6.43492">
        <ele>1832</ele>
        <time>2018-08-15T14:41:12+02:00</time>
      </trkpt>
      <trkpt lat="45.98806" lon="6.43487">
        <ele>1832</ele>
        <time>2018-08-15T14:41:22+02:00</time>
      </trkpt>
      <trkpt lat="45.98797" lon="6.43481">
        <ele>1832</ele>
        <time>2018-08-15T14:41:33+02:00</time>
      </trkpt>
      <trkpt lat="45.98789" lon="6.43474">
        <ele>1832</ele>
        <time>2018-08-15T14:41:43+02:00</time>
      </trkpt>
      <trkpt lat="45.98781" lon="6.43466">
        <ele>1833</ele>
        <time>2018-08-15T14:41:55+02:00</time>
      </trkpt>
      <trkpt lat="45.98774" lon="6.43458">
        <ele>1832</ele>
        <time>2018-08-15T14:42:04+02:00</time>
      </trkpt>
      <trkpt lat="45.98767" lon="6.43448">
        <ele>1833</ele>
        <time>2018-08-15T14:42:14+02:00</time>
      </trkpt>
      <trkpt lat="45.98761" lon="6.43437">
        <ele>1833</ele>
        <time>2018-08-15T14:42:24+02:00</time>
      </trkpt>
      <trkpt lat="45.98755" lon="6.43428">
        <ele>1833</ele>
        <time>2018-08-15T14:42:35+02:00</time>
      </trkpt>
      <trkpt lat="45.98747" lon="6.4342">
        <ele>1834</ele>
        <time>2018-08-15T14:42:46+02:00</time>
      </trkpt>
      <trkpt lat="45.9874" lon="6.43411">
        <ele>1836</ele>
        <time>2018-08-15T14:43:01+02:00</time>
      </trkpt>
      <trkpt lat="45.98733" lon="6.43402">
        <ele>1837</ele>
        <time>2018-08-15T14:43:15+02:00</time>
      </trkpt>
      <trkpt lat="45.98728" lon="6.43391">
        <ele>1838</ele>
        <time>2018-08-15T14:43:30+02:00</time>
      </trkpt>
      <trkpt lat="45.98724" lon="6.43379">
        <ele>1840</ele>
        <time>2018-08-15T14:43:47+02:00</time>
      </trkpt>
      <trkpt lat="45.98719" lon="6.43368">
        <ele>1842</ele>
        <time>2018-08-15T14:44:01+02:00</time>
      </trkpt>
      <trkpt lat="45.98714" lon="6.43356">
        <ele>1843</ele>
        <time>2018-08-15T14:44:15+02:00</time>
      </trkpt>
      <trkpt lat="45.98711" lon="6.43344">
        <ele>1845</ele>
        <time>2018-08-15T14:44:29+02:00</time>
      </trkpt>
      <trkpt lat="45.98708" lon="6.43331">
        <ele>1846</ele>
        <time>2018-08-15T14:44:42+02:00</time>
      </trkpt>
      <trkpt lat="45.98705" lon="6.43319">
        <ele>1848</ele>
        <time>2018-08-15T14:44:56+02:00</time>
      </trkpt>
      <trkpt lat="45.98702" lon="6.43307">
        <ele>1850</ele>
        <time>2018-08-15T14:45:10+02:00</time>
      </trkpt>
      <trkpt lat="45.987" lon="6.43294">
        <ele>1850</ele>
        <time>2018-08-15T14:45:25+02:00</time>
      </trkpt>
      <trkpt lat="45.98697" lon="6.4328">
        <ele>1851</ele>
        <time>2018-08-15T14:45:38+02:00</time>
      </trkpt>
      <trkpt lat="45.98698" lon="6.43267">
        <ele>1853</ele>
        <time>2018-08-15T14:45:50+02:00</time>
      </trkpt>
      <trkpt lat="45.98697" lon="6.43253">
        <ele>1854</ele>
        <time>2018-08-15T14:46:03+02:00</time>
      </trkpt>
      <trkpt lat="45.98692" lon="6.43242">
        <ele>1856</ele>
        <time>2018-08-15T14:46:17+02:00</time>
      </trkpt>
      <trkpt lat="45.98687" lon="6.4323">
        <ele>1856</ele>
        <time>2018-08-15T14:46:31+02:00</time>
      </trkpt>
      <trkpt lat="45.98683" lon="6.43219">
        <ele>1858</ele>
        <time>2018-08-15T14:46:43+02:00</time>
      </trkpt>
      <trkpt lat="45.98681" lon="6.43206">
        <ele>1857</ele>
        <time>2018-08-15T14:46:56+02:00</time>
      </trkpt>
      <trkpt lat="45.98677" lon="6.43194">
        <ele>1859</ele>
        <time>2018-08-15T14:47:11+02:00</time>
      </trkpt>
      <trkpt lat="45.98672" lon="6.43182">
        <ele>1861</ele>
        <time>2018-08-15T14:47:25+02:00</time>
      </trkpt>
      <trkpt lat="45.98666" lon="6.43172">
        <ele>1862</ele>
        <time>2018-08-15T14:47:40+02:00</time>
      </trkpt>
      <trkpt lat="45.9866" lon="6.43161">
        <ele>1863</ele>
        <time>2018-08-15T14:47:56+02:00</time>
      </trkpt>
      <trkpt lat="45.98653" lon="6.43152">
        <ele>1863</ele>
        <time>2018-08-15T14:48:14+02:00</time>
      </trkpt>
      <trkpt lat="45.98648" lon="6.43139">
        <ele>1867</ele>
        <time>2018-08-15T14:48:32+02:00</time>
      </trkpt>
      <trkpt lat="45.98641" lon="6.43131">
        <ele>1869</ele>
        <time>2018-08-15T14:49:32+02:00</time>
      </trkpt>
      <trkpt lat="45.98635" lon="6.43121">
        <ele>1872</ele>
        <time>2018-08-15T14:49:52+02:00</time>
      </trkpt>
      <trkpt lat="45.9863" lon="6.43109">
        <ele>1873</ele>
        <time>2018-08-15T14:50:06+02:00</time>
      </trkpt>
      <trkpt lat="45.98624" lon="6.431">
        <ele>1873</ele>
        <time>2018-08-15T14:50:18+02:00</time>
      </trkpt>
      <trkpt lat="45.98616" lon="6.43091">
        <ele>1873</ele>
        <time>2018-08-15T14:50:32+02:00</time>
      </trkpt>
      <trkpt lat="45.98609" lon="6.43083">
        <ele>1874</ele>
        <time>2018-08-15T14:50:43+02:00</time>
      </trkpt>
      <trkpt lat="45.98601" lon="6.43076">
        <ele>1873</ele>
        <time>2018-08-15T14:50:56+02:00</time>
      </trkpt>
      <trkpt lat="45.98591" lon="6.4307">
        <ele>1874</ele>
        <time>2018-08-15T14:51:14+02:00</time>
      </trkpt>
      <trkpt lat="45.98585" lon="6.4306">
        <ele>1879</ele>
        <time>2018-08-15T14:52:23+02:00</time>
      </trkpt>
      <trkpt lat="45.98578" lon="6.4305">
        <ele>1882</ele>
        <time>2018-08-15T14:52:37+02:00</time>
      </trkpt>
      <trkpt lat="45.98572" lon="6.43041">
        <ele>1883</ele>
        <time>2018-08-15T14:53:05+02:00</time>
      </trkpt>
      <trkpt lat="45.98566" lon="6.4303">
        <ele>1885</ele>
        <time>2018-08-15T14:53:23+02:00</time>
      </trkpt>
      <trkpt lat="45.98561" lon="6.43019">
        <ele>1889</ele>
        <time>2018-08-15T14:53:41+02:00</time>
      </trkpt>
      <trkpt lat="45.98554" lon="6.43009">
        <ele>1891</ele>
        <time>2018-08-15T14:54:18+02:00</time>
      </trkpt>
      <trkpt lat="45.98549" lon="6.42998">
        <ele>1893</ele>
        <time>2018-08-15T14:54:59+02:00</time>
      </trkpt>
      <trkpt lat="45.98544" lon="6.42988">
        <ele>1896</ele>
        <time>2018-08-15T14:55:13+02:00</time>
      </trkpt>
      <trkpt lat="45.98542" lon="6.42975">
        <ele>1899</ele>
        <time>2018-08-15T14:55:50+02:00</time>
      </trkpt>
      <trkpt lat="45.98534" lon="6.42965">
        <ele>1897</ele>
        <time>2018-08-15T14:56:17+02:00</time>
      </trkpt>
      <trkpt lat="45.98527" lon="6.42956">
        <ele>1894</ele>
        <time>2018-08-15T14:56:38+02:00</time>
      </trkpt>
      <trkpt lat="45.98519" lon="6.42951">
        <ele>1891</ele>
        <time>2018-08-15T14:56:54+02:00</time>
      </trkpt>
      <trkpt lat="45.98509" lon="6.42952">
        <ele>1888</ele>
        <time>2018-08-15T14:57:12+02:00</time>
      </trkpt>
      <trkpt lat="45.98498" lon="6.42954">
        <ele>1884</ele>
        <time>2018-08-15T14:57:31+02:00</time>
      </trkpt>
      <trkpt lat="45.98489" lon="6.42956">
        <ele>1881</ele>
        <time>2018-08-15T14:57:56+02:00</time>
      </trkpt>
      <trkpt lat="45.9848" lon="6.42957">
        <ele>1879</ele>
        <time>2018-08-15T14:58:17+02:00</time>
      </trkpt>
      <trkpt lat="45.98472" lon="6.42964">
        <ele>1875</ele>
        <time>2018-08-15T14:58:44+02:00</time>
      </trkpt>
      <trkpt lat="45.98464" lon="6.4296">
        <ele>1870</ele>
        <time>2018-08-15T14:59:15+02:00</time>
      </trkpt>
      <trkpt lat="45.98456" lon="6.42952">
        <ele>1868</ele>
        <time>2018-08-15T14:59:37+02:00</time>
      </trkpt>
      <trkpt lat="45.98447" lon="6.42946">
        <ele>1866</ele>
        <time>2018-08-15T14:59:53+02:00</time>
      </trkpt>
      <trkpt lat="45.98437" lon="6.42943">
        <ele>1864</ele>
        <time>2018-08-15T15:00:21+02:00</time>
      </trkpt>
      <trkpt lat="45.98428" lon="6.4294">
        <ele>1862</ele>
        <time>2018-08-15T15:00:43+02:00</time>
      </trkpt>
      <trkpt lat="45.98419" lon="6.42934">
        <ele>1858</ele>
        <time>2018-08-15T15:01:01+02:00</time>
      </trkpt>
      <trkpt lat="45.9841" lon="6.42935">
        <ele>1858</ele>
        <time>2018-08-15T15:01:35+02:00</time>
      </trkpt>
      <trkpt lat="45.98401" lon="6.42933">
        <ele>1856</ele>
        <time>2018-08-15T15:01:53+02:00</time>
      </trkpt>
      <trkpt lat="45.98392" lon="6.42925">
        <ele>1853</ele>
        <time>2018-08-15T15:02:15+02:00</time>
      </trkpt>
      <trkpt lat="45.98383" lon="6.42925">
        <ele>1850</ele>
        <time>2018-08-15T15:02:34+02:00</time>
      </trkpt>
      <trkpt lat="45.98385" lon="6.42911">
        <ele>1846</ele>
        <time>2018-08-15T15:03:18+02:00</time>
      </trkpt>
      <trkpt lat="45.9838" lon="6.42901">
        <ele>1841</ele>
        <time>2018-08-15T15:03:43+02:00</time>
      </trkpt>
      <trkpt lat="45.98371" lon="6.42892">
        <ele>1837</ele>
        <time>2018-08-15T15:04:08+02:00</time>
      </trkpt>
      <trkpt lat="45.98363" lon="6.42885">
        <ele>1835</ele>
        <time>2018-08-15T15:04:29+02:00</time>
      </trkpt>
      <trkpt lat="45.98355" lon="6.42878">
        <ele>1836</ele>
        <time>2018-08-15T15:04:47+02:00</time>
      </trkpt>
      <trkpt lat="45.98348" lon="6.4287">
        <ele>1836</ele>
        <time>2018-08-15T15:04:57+02:00</time>
      </trkpt>
      <trkpt lat="45.98338" lon="6.42867">
        <ele>1834</ele>
        <time>2018-08-15T15:05:12+02:00</time>
      </trkpt>
      <trkpt lat="45.98329" lon="6.42862">
        <ele>1830</ele>
        <time>2018-08-15T15:05:33+02:00</time>
      </trkpt>
      <trkpt lat="45.9832" lon="6.42863">
        <ele>1828</ele>
        <time>2018-08-15T15:05:52+02:00</time>
      </trkpt>
      <trkpt lat="45.98312" lon="6.42859">
        <ele>1828</ele>
        <time>2018-08-15T15:06:04+02:00</time>
      </trkpt>
      <trkpt lat="45.98305" lon="6.42849">
        <ele>1824</ele>
        <time>2018-08-15T15:07:24+02:00</time>
      </trkpt>
      <trkpt lat="45.98296" lon="6.4285">
        <ele>1823</ele>
        <time>2018-08-15T15:07:40+02:00</time>
      </trkpt>
      <trkpt lat="45.98286" lon="6.4285">
        <ele>1823</ele>
        <time>2018-08-15T15:07:53+02:00</time>
      </trkpt>
      <trkpt lat="45.9828" lon="6.42841">
        <ele>1820</ele>
        <time>2018-08-15T15:08:18+02:00</time>
      </trkpt>
      <trkpt lat="45.98273" lon="6.4283">
        <ele>1818</ele>
        <time>2018-08-15T15:08:41+02:00</time>
      </trkpt>
      <trkpt lat="45.9827" lon="6.42816">
        <ele>1816</ele>
        <time>2018-08-15T15:09:01+02:00</time>
      </trkpt>
      <trkpt lat="45.98265" lon="6.42805">
        <ele>1815</ele>
        <time>2018-08-15T15:09:20+02:00</time>
      </trkpt>
      <trkpt lat="45.98257" lon="6.42795">
        <ele>1809</ele>
        <time>2018-08-15T15:10:18+02:00</time>
      </trkpt>
      <trkpt lat="45.98249" lon="6.4279">
        <ele>1806</ele>
        <time>2018-08-15T15:10:39+02:00</time>
      </trkpt>
      <trkpt lat="45.98241" lon="6.42783">
        <ele>1802</ele>
        <time>2018-08-15T15:11:09+02:00</time>
      </trkpt>
      <trkpt lat="45.98233" lon="6.42775">
        <ele>1800</ele>
        <time>2018-08-15T15:11:30+02:00</time>
      </trkpt>
      <trkpt lat="45.98226" lon="6.42766">
        <ele>1799</ele>
        <time>2018-08-15T15:11:59+02:00</time>
      </trkpt>
      <trkpt lat="45.98217" lon="6.42766">
        <ele>1795</ele>
        <time>2018-08-15T15:12:18+02:00</time>
      </trkpt>
      <trkpt lat="45.98208" lon="6.42768">
        <ele>1793</ele>
        <time>2018-08-15T15:12:41+02:00</time>
      </trkpt>
      <trkpt lat="45.982" lon="6.4276">
        <ele>1789</ele>
        <time>2018-08-15T15:13:15+02:00</time>
      </trkpt>
      <trkpt lat="45.98193" lon="6.42752">
        <ele>1787</ele>
        <time>2018-08-15T15:13:38+02:00</time>
      </trkpt>
      <trkpt lat="45.98187" lon="6.42741">
        <ele>1784</ele>
        <time>2018-08-15T15:13:53+02:00</time>
      </trkpt>
      <trkpt lat="45.98183" lon="6.42729">
        <ele>1784</ele>
        <time>2018-08-15T15:14:06+02:00</time>
      </trkpt>
      <trkpt lat="45.98176" lon="6.4272">
        <ele>1782</ele>
        <time>2018-08-15T15:14:53+02:00</time>
      </trkpt>
      <trkpt lat="45.98167" lon="6.42718">
        <ele>1777</ele>
        <time>2018-08-15T15:15:10+02:00</time>
      </trkpt>
      <trkpt lat="45.98158" lon="6.42712">
        <ele>1776</ele>
        <time>2018-08-15T15:15:31+02:00</time>
      </trkpt>
      <trkpt lat="45.98148" lon="6.42705">
        <ele>1774</ele>
        <time>2018-08-15T15:15:47+02:00</time>
      </trkpt>
      <trkpt lat="45.9814" lon="6.42698">
        <ele>1773</ele>
        <time>2018-08-15T15:16:25+02:00</time>
      </trkpt>
      <trkpt lat="45.98131" lon="6.42701">
        <ele>1769</ele>
        <time>2018-08-15T15:17:45+02:00</time>
      </trkpt>
      <trkpt lat="45.98121" lon="6.427">
        <ele>1764</ele>
        <time>2018-08-15T15:18:08+02:00</time>
      </trkpt>
      <trkpt lat="45.98116" lon="6.42687">
        <ele>1763</ele>
        <time>2018-08-15T15:18:33+02:00</time>
      </trkpt>
      <trkpt lat="45.98107" lon="6.42685">
        <ele>1758</ele>
        <time>2018-08-15T15:18:57+02:00</time>
      </trkpt>
      <trkpt lat="45.98098" lon="6.42683">
        <ele>1754</ele>
        <time>2018-08-15T15:19:36+02:00</time>
      </trkpt>
      <trkpt lat="45.98098" lon="6.42669">
        <ele>1749</ele>
        <time>2018-08-15T15:20:12+02:00</time>
      </trkpt>
      <trkpt lat="45.9809" lon="6.4266">
        <ele>1747</ele>
        <time>2018-08-15T15:20:43+02:00</time>
      </trkpt>
      <trkpt lat="45.98081" lon="6.42664">
        <ele>1745</ele>
        <time>2018-08-15T15:21:01+02:00</time>
      </trkpt>
      <trkpt lat="45.98073" lon="6.4267">
        <ele>1744</ele>
        <time>2018-08-15T15:21:14+02:00</time>
      </trkpt>
      <trkpt lat="45.98063" lon="6.4267">
        <ele>1741</ele>
        <time>2018-08-15T15:21:28+02:00</time>
      </trkpt>
      <trkpt lat="45.98056" lon="6.42662">
        <ele>1739</ele>
        <time>2018-08-15T15:22:08+02:00</time>
      </trkpt>
      <trkpt lat="45.98048" lon="6.42653">
        <ele>1736</ele>
        <time>2018-08-15T15:22:32+02:00</time>
      </trkpt>
      <trkpt lat="45.9804" lon="6.4266">
        <ele>1733</ele>
        <time>2018-08-15T15:22:50+02:00</time>
      </trkpt>
      <trkpt lat="45.98033" lon="6.42671">
        <ele>1728</ele>
        <time>2018-08-15T15:23:11+02:00</time>
      </trkpt>
      <trkpt lat="45.98027" lon="6.42682">
        <ele>1725</ele>
        <time>2018-08-15T15:23:23+02:00</time>
      </trkpt>
      <trkpt lat="45.98018" lon="6.42681">
        <ele>1725</ele>
        <time>2018-08-15T15:23:35+02:00</time>
      </trkpt>
      <trkpt lat="45.98008" lon="6.42682">
        <ele>1723</ele>
        <time>2018-08-15T15:23:57+02:00</time>
      </trkpt>
      <trkpt lat="45.97999" lon="6.42687">
        <ele>1719</ele>
        <time>2018-08-15T15:24:14+02:00</time>
      </trkpt>
      <trkpt lat="45.97993" lon="6.42696">
        <ele>1719</ele>
        <time>2018-08-15T15:24:28+02:00</time>
      </trkpt>
      <trkpt lat="45.97983" lon="6.42698">
        <ele>1717</ele>
        <time>2018-08-15T15:25:01+02:00</time>
      </trkpt>
      <trkpt lat="45.97973" lon="6.42696">
        <ele>1714</ele>
        <time>2018-08-15T15:25:30+02:00</time>
      </trkpt>
      <trkpt lat="45.97965" lon="6.42694">
        <ele>1711</ele>
        <time>2018-08-15T15:25:50+02:00</time>
      </trkpt>
      <trkpt lat="45.97957" lon="6.42685">
        <ele>1709</ele>
        <time>2018-08-15T15:26:15+02:00</time>
      </trkpt>
      <trkpt lat="45.97964" lon="6.42676">
        <ele>1703</ele>
        <time>2018-08-15T15:27:05+02:00</time>
      </trkpt>
      <trkpt lat="45.97969" lon="6.42664">
        <ele>1699</ele>
        <time>2018-08-15T15:27:29+02:00</time>
      </trkpt>
      <trkpt lat="45.97963" lon="6.42653">
        <ele>1698</ele>
        <time>2018-08-15T15:28:06+02:00</time>
      </trkpt>
      <trkpt lat="45.97956" lon="6.42643">
        <ele>1694</ele>
        <time>2018-08-15T15:28:37+02:00</time>
      </trkpt>
      <trkpt lat="45.97946" lon="6.42645">
        <ele>1693</ele>
        <time>2018-08-15T15:28:55+02:00</time>
      </trkpt>
      <trkpt lat="45.97936" lon="6.42642">
        <ele>1691</ele>
        <time>2018-08-15T15:29:13+02:00</time>
      </trkpt>
      <trkpt lat="45.97926" lon="6.42641">
        <ele>1688</ele>
        <time>2018-08-15T15:29:36+02:00</time>
      </trkpt>
      <trkpt lat="45.97917" lon="6.42638">
        <ele>1684</ele>
        <time>2018-08-15T15:30:03+02:00</time>
      </trkpt>
      <trkpt lat="45.97907" lon="6.42637">
        <ele>1683</ele>
        <time>2018-08-15T15:30:30+02:00</time>
      </trkpt>
      <trkpt lat="45.97898" lon="6.42634">
        <ele>1680</ele>
        <time>2018-08-15T15:30:50+02:00</time>
      </trkpt>
      <trkpt lat="45.97888" lon="6.4263">
        <ele>1678</ele>
        <time>2018-08-15T15:31:15+02:00</time>
      </trkpt>
      <trkpt lat="45.97879" lon="6.42628">
        <ele>1676</ele>
        <time>2018-08-15T15:31:49+02:00</time>
      </trkpt>
      <trkpt lat="45.9787" lon="6.42624">
        <ele>1674</ele>
        <time>2018-08-15T15:32:06+02:00</time>
      </trkpt>
      <trkpt lat="45.9786" lon="6.42624">
        <ele>1672</ele>
        <time>2018-08-15T15:32:30+02:00</time>
      </trkpt>
      <trkpt lat="45.97859" lon="6.4261">
        <ele>1666</ele>
        <time>2018-08-15T15:33:11+02:00</time>
      </trkpt>
      <trkpt lat="45.97864" lon="6.426">
        <ele>1663</ele>
        <time>2018-08-15T15:33:56+02:00</time>
      </trkpt>
      <trkpt lat="45.9787" lon="6.4259">
        <ele>1660</ele>
        <time>2018-08-15T15:34:22+02:00</time>
      </trkpt>
      <trkpt lat="45.97878" lon="6.42582">
        <ele>1659</ele>
        <time>2018-08-15T15:34:48+02:00</time>
      </trkpt>
      <trkpt lat="45.97884" lon="6.42571">
        <ele>1656</ele>
        <time>2018-08-15T15:35:08+02:00</time>
      </trkpt>
      <trkpt lat="45.97888" lon="6.42559">
        <ele>1655</ele>
        <time>2018-08-15T15:35:26+02:00</time>
      </trkpt>
      <trkpt lat="45.97892" lon="6.42547">
        <ele>1652</ele>
        <time>2018-08-15T15:35:46+02:00</time>
      </trkpt>
      <trkpt lat="45.97899" lon="6.42539">
        <ele>1649</ele>
        <time>2018-08-15T15:36:02+02:00</time>
      </trkpt>
      <trkpt lat="45.97906" lon="6.4253">
        <ele>1647</ele>
        <time>2018-08-15T15:36:18+02:00</time>
      </trkpt>
      <trkpt lat="45.97914" lon="6.42519">
        <ele>1647</ele>
        <time>2018-08-15T15:36:43+02:00</time>
      </trkpt>
      <trkpt lat="45.97915" lon="6.42505">
        <ele>1641</ele>
        <time>2018-08-15T15:37:08+02:00</time>
      </trkpt>
      <trkpt lat="45.97912" lon="6.42492">
        <ele>1641</ele>
        <time>2018-08-15T15:37:49+02:00</time>
      </trkpt>
      <trkpt lat="45.97914" lon="6.42479">
        <ele>1639</ele>
        <time>2018-08-15T15:38:13+02:00</time>
      </trkpt>
      <trkpt lat="45.97914" lon="6.42464">
        <ele>1637</ele>
        <time>2018-08-15T15:38:55+02:00</time>
      </trkpt>
      <trkpt lat="45.9791" lon="6.42453">
        <ele>1635</ele>
        <time>2018-08-15T15:39:18+02:00</time>
      </trkpt>
      <trkpt lat="45.97905" lon="6.42441">
        <ele>1632</ele>
        <time>2018-08-15T15:39:40+02:00</time>
      </trkpt>
      <trkpt lat="45.97902" lon="6.42427">
        <ele>1628</ele>
        <time>2018-08-15T15:40:13+02:00</time>
      </trkpt>
      <trkpt lat="45.97898" lon="6.42415">
        <ele>1621</ele>
        <time>2018-08-15T15:41:00+02:00</time>
      </trkpt>
      <trkpt lat="45.97897" lon="6.42402">
        <ele>1618</ele>
        <time>2018-08-15T15:41:39+02:00</time>
      </trkpt>
      <trkpt lat="45.97894" lon="6.4239">
        <ele>1615</ele>
        <time>2018-08-15T15:42:01+02:00</time>
      </trkpt>
      <trkpt lat="45.97885" lon="6.42384">
        <ele>1613</ele>
        <time>2018-08-15T15:42:30+02:00</time>
      </trkpt>
      <trkpt lat="45.97876" lon="6.42383">
        <ele>1611</ele>
        <time>2018-08-15T15:42:58+02:00</time>
      </trkpt>
      <trkpt lat="45.97868" lon="6.42377">
        <ele>1606</ele>
        <time>2018-08-15T15:43:38+02:00</time>
      </trkpt>
      <trkpt lat="45.9787" lon="6.42364">
        <ele>1604</ele>
        <time>2018-08-15T15:44:13+02:00</time>
      </trkpt>
      <trkpt lat="45.97873" lon="6.42352">
        <ele>1602</ele>
        <time>2018-08-15T15:44:46+02:00</time>
      </trkpt>
      <trkpt lat="45.97876" lon="6.42339">
        <ele>1600</ele>
        <time>2018-08-15T15:45:07+02:00</time>
      </trkpt>
      <trkpt lat="45.97872" lon="6.42327">
        <ele>1597</ele>
        <time>2018-08-15T15:45:30+02:00</time>
      </trkpt>
      <trkpt lat="45.97866" lon="6.42318">
        <ele>1594</ele>
        <time>2018-08-15T15:45:55+02:00</time>
      </trkpt>
      <trkpt lat="45.97857" lon="6.42313">
        <ele>1591</ele>
        <time>2018-08-15T15:46:29+02:00</time>
      </trkpt>
      <trkpt lat="45.97848" lon="6.4231">
        <ele>1589</ele>
        <time>2018-08-15T15:46:47+02:00</time>
      </trkpt>
      <trkpt lat="45.9784" lon="6.42304">
        <ele>1587</ele>
        <time>2018-08-15T15:47:09+02:00</time>
      </trkpt>
      <trkpt lat="45.97835" lon="6.42293">
        <ele>1583</ele>
        <time>2018-08-15T15:47:42+02:00</time>
      </trkpt>
      <trkpt lat="45.97834" lon="6.42279">
        <ele>1582</ele>
        <time>2018-08-15T15:48:03+02:00</time>
      </trkpt>
      <trkpt lat="45.97833" lon="6.42266">
        <ele>1580</ele>
        <time>2018-08-15T15:48:28+02:00</time>
      </trkpt>
      <trkpt lat="45.97834" lon="6.42253">
        <ele>1579</ele>
        <time>2018-08-15T15:48:55+02:00</time>
      </trkpt>
      <trkpt lat="45.97835" lon="6.42239">
        <ele>1576</ele>
        <time>2018-08-15T15:49:19+02:00</time>
      </trkpt>
      <trkpt lat="45.97834" lon="6.42225">
        <ele>1572</ele>
        <time>2018-08-15T15:49:40+02:00</time>
      </trkpt>
      <trkpt lat="45.97838" lon="6.42213">
        <ele>1567</ele>
        <time>2018-08-15T15:49:58+02:00</time>
      </trkpt>
      <trkpt lat="45.97845" lon="6.42205">
        <ele>1567</ele>
        <time>2018-08-15T15:50:16+02:00</time>
      </trkpt>
      <trkpt lat="45.9785" lon="6.42193">
        <ele>1569</ele>
        <time>2018-08-15T15:50:33+02:00</time>
      </trkpt>
      <trkpt lat="45.97842" lon="6.42185">
        <ele>1564</ele>
        <time>2018-08-15T15:51:04+02:00</time>
      </trkpt>
      <trkpt lat="45.97835" lon="6.42177">
        <ele>1562</ele>
        <time>2018-08-15T15:51:32+02:00</time>
      </trkpt>
      <trkpt lat="45.97841" lon="6.42166">
        <ele>1560</ele>
        <time>2018-08-15T15:52:00+02:00</time>
      </trkpt>
      <trkpt lat="45.9784" lon="6.42153">
        <ele>1559</ele>
        <time>2018-08-15T15:52:18+02:00</time>
      </trkpt>
      <trkpt lat="45.97831" lon="6.42158">
        <ele>1549</ele>
        <time>2018-08-15T15:54:09+02:00</time>
      </trkpt>
      <trkpt lat="45.97823" lon="6.42164">
        <ele>1544</ele>
        <time>2018-08-15T15:54:26+02:00</time>
      </trkpt>
      <trkpt lat="45.97815" lon="6.42171">
        <ele>1546</ele>
        <time>2018-08-15T15:54:37+02:00</time>
      </trkpt>
      <trkpt lat="45.97806" lon="6.42177">
        <ele>1545</ele>
        <time>2018-08-15T15:54:47+02:00</time>
      </trkpt>
      <trkpt lat="45.97797" lon="6.4218">
        <ele>1546</ele>
        <time>2018-08-15T15:54:58+02:00</time>
      </trkpt>
      <trkpt lat="45.97788" lon="6.42175">
        <ele>1546</ele>
        <time>2018-08-15T15:55:09+02:00</time>
      </trkpt>
      <trkpt lat="45.97779" lon="6.42174">
        <ele>1545</ele>
        <time>2018-08-15T15:55:22+02:00</time>
      </trkpt>
      <trkpt lat="45.97769" lon="6.4217">
        <ele>1544</ele>
        <time>2018-08-15T15:55:33+02:00</time>
      </trkpt>
      <trkpt lat="45.97762" lon="6.42162">
        <ele>1546</ele>
        <time>2018-08-15T15:55:42+02:00</time>
      </trkpt>
      <trkpt lat="45.97754" lon="6.42154">
        <ele>1547</ele>
        <time>2018-08-15T15:55:54+02:00</time>
      </trkpt>
      <trkpt lat="45.97746" lon="6.42146">
        <ele>1549</ele>
        <time>2018-08-15T15:56:10+02:00</time>
      </trkpt>
      <trkpt lat="45.97738" lon="6.42139">
        <ele>1550</ele>
        <time>2018-08-15T15:56:22+02:00</time>
      </trkpt>
      <trkpt lat="45.97729" lon="6.42135">
        <ele>1549</ele>
        <time>2018-08-15T15:56:33+02:00</time>
      </trkpt>
      <trkpt lat="45.9772" lon="6.42131">
        <ele>1551</ele>
        <time>2018-08-15T15:56:47+02:00</time>
      </trkpt>
      <trkpt lat="45.97711" lon="6.42132">
        <ele>1550</ele>
        <time>2018-08-15T15:57:01+02:00</time>
      </trkpt>
      <trkpt lat="45.97701" lon="6.42131">
        <ele>1550</ele>
        <time>2018-08-15T15:57:15+02:00</time>
      </trkpt>
      <trkpt lat="45.97693" lon="6.42136">
        <ele>1552</ele>
        <time>2018-08-15T15:57:32+02:00</time>
      </trkpt>
      <trkpt lat="45.97684" lon="6.42138">
        <ele>1552</ele>
        <time>2018-08-15T15:57:45+02:00</time>
      </trkpt>
      <trkpt lat="45.97675" lon="6.42142">
        <ele>1553</ele>
        <time>2018-08-15T15:57:59+02:00</time>
      </trkpt>
      <trkpt lat="45.97667" lon="6.42134">
        <ele>1554</ele>
        <time>2018-08-15T15:58:11+02:00</time>
      </trkpt>
      <trkpt lat="45.9766" lon="6.42125">
        <ele>1554</ele>
        <time>2018-08-15T15:58:21+02:00</time>
      </trkpt>
      <trkpt lat="45.97651" lon="6.4212">
        <ele>1555</ele>
        <time>2018-08-15T15:58:37+02:00</time>
      </trkpt>
      <trkpt lat="45.97642" lon="6.42123">
        <ele>1554</ele>
        <time>2018-08-15T15:59:07+02:00</time>
      </trkpt>
      <trkpt lat="45.97634" lon="6.42116">
        <ele>1554</ele>
        <time>2018-08-15T15:59:17+02:00</time>
      </trkpt>
      <trkpt lat="45.97626" lon="6.42109">
        <ele>1556</ele>
        <time>2018-08-15T15:59:32+02:00</time>
      </trkpt>
      <trkpt lat="45.97617" lon="6.42105">
        <ele>1555</ele>
        <time>2018-08-15T15:59:44+02:00</time>
      </trkpt>
      <trkpt lat="45.97609" lon="6.42098">
        <ele>1555</ele>
        <time>2018-08-15T15:59:56+02:00</time>
      </trkpt>
      <trkpt lat="45.97599" lon="6.42099">
        <ele>1556</ele>
        <time>2018-08-15T16:00:16+02:00</time>
      </trkpt>
      <trkpt lat="45.97589" lon="6.42096">
        <ele>1556</ele>
        <time>2018-08-15T16:00:35+02:00</time>
      </trkpt>
      <trkpt lat="45.9758" lon="6.42092">
        <ele>1558</ele>
        <time>2018-08-15T16:00:54+02:00</time>
      </trkpt>
      <trkpt lat="45.97572" lon="6.42088">
        <ele>1559</ele>
        <time>2018-08-15T16:01:10+02:00</time>
      </trkpt>
      <trkpt lat="45.97562" lon="6.42085">
        <ele>1563</ele>
        <time>2018-08-15T16:03:22+02:00</time>
      </trkpt>
      <trkpt lat="45.97554" lon="6.42081">
        <ele>1566</ele>
        <time>2018-08-15T16:03:51+02:00</time>
      </trkpt>
      <trkpt lat="45.97547" lon="6.42073">
        <ele>1568</ele>
        <time>2018-08-15T16:04:17+02:00</time>
      </trkpt>
      <trkpt lat="45.9754" lon="6.42063">
        <ele>1571</ele>
        <time>2018-08-15T16:05:25+02:00</time>
      </trkpt>
      <trkpt lat="45.97534" lon="6.42052">
        <ele>1576</ele>
        <time>2018-08-15T16:05:53+02:00</time>
      </trkpt>
      <trkpt lat="45.97529" lon="6.4204">
        <ele>1579</ele>
        <time>2018-08-15T16:06:13+02:00</time>
      </trkpt>
      <trkpt lat="45.97523" lon="6.4203">
        <ele>1579</ele>
        <time>2018-08-15T16:06:34+02:00</time>
      </trkpt>
      <trkpt lat="45.97515" lon="6.42023">
        <ele>1582</ele>
        <time>2018-08-15T16:15:05+02:00</time>
      </trkpt>
      <trkpt lat="45.97506" lon="6.4202">
        <ele>1584</ele>
        <time>2018-08-15T16:15:28+02:00</time>
      </trkpt>
      <trkpt lat="45.97498" lon="6.42014">
        <ele>1587</ele>
        <time>2018-08-15T16:15:47+02:00</time>
      </trkpt>
      <trkpt lat="45.97489" lon="6.42008">
        <ele>1589</ele>
        <time>2018-08-15T16:16:07+02:00</time>
      </trkpt>
      <trkpt lat="45.9748" lon="6.42004">
        <ele>1592</ele>
        <time>2018-08-15T16:16:29+02:00</time>
      </trkpt>
      <trkpt lat="45.97471" lon="6.42">
        <ele>1595</ele>
        <time>2018-08-15T16:16:55+02:00</time>
      </trkpt>
      <trkpt lat="45.97464" lon="6.41993">
        <ele>1598</ele>
        <time>2018-08-15T16:17:22+02:00</time>
      </trkpt>
      <trkpt lat="45.97455" lon="6.41991">
        <ele>1602</ele>
        <time>2018-08-15T16:18:10+02:00</time>
      </trkpt>
      <trkpt lat="45.97446" lon="6.4199">
        <ele>1604</ele>
        <time>2018-08-15T16:18:33+02:00</time>
      </trkpt>
      <trkpt lat="45.97437" lon="6.41989">
        <ele>1606</ele>
        <time>2018-08-15T16:20:18+02:00</time>
      </trkpt>
      <trkpt lat="45.97427" lon="6.41987">
        <ele>1611</ele>
        <time>2018-08-15T16:20:45+02:00</time>
      </trkpt>
      <trkpt lat="45.97418" lon="6.41983">
        <ele>1616</ele>
        <time>2018-08-15T16:21:20+02:00</time>
      </trkpt>
      <trkpt lat="45.97409" lon="6.41981">
        <ele>1618</ele>
        <time>2018-08-15T16:23:06+02:00</time>
      </trkpt>
      <trkpt lat="45.97402" lon="6.41974">
        <ele>1624</ele>
        <time>2018-08-15T16:24:11+02:00</time>
      </trkpt>
      <trkpt lat="45.97393" lon="6.41973">
        <ele>1624</ele>
        <time>2018-08-15T16:24:36+02:00</time>
      </trkpt>
      <trkpt lat="45.97384" lon="6.41977">
        <ele>1629</ele>
        <time>2018-08-15T16:25:46+02:00</time>
      </trkpt>
      <trkpt lat="45.97375" lon="6.41975">
        <ele>1631</ele>
        <time>2018-08-15T16:27:14+02:00</time>
      </trkpt>
      <trkpt lat="45.97366" lon="6.41974">
        <ele>1637</ele>
        <time>2018-08-15T16:28:11+02:00</time>
      </trkpt>
      <trkpt lat="45.97356" lon="6.41971">
        <ele>1641</ele>
        <time>2018-08-15T16:28:47+02:00</time>
      </trkpt>
      <trkpt lat="45.97347" lon="6.41967">
        <ele>1644</ele>
        <time>2018-08-15T16:29:30+02:00</time>
      </trkpt>
      <trkpt lat="45.97338" lon="6.41966">
        <ele>1648</ele>
        <time>2018-08-15T16:29:59+02:00</time>
      </trkpt>
      <trkpt lat="45.97329" lon="6.4196">
        <ele>1655</ele>
        <time>2018-08-15T16:30:32+02:00</time>
      </trkpt>
      <trkpt lat="45.97322" lon="6.41954">
        <ele>1660</ele>
        <time>2018-08-15T16:31:12+02:00</time>
      </trkpt>
      <trkpt lat="45.97313" lon="6.41948">
        <ele>1663</ele>
        <time>2018-08-15T16:32:35+02:00</time>
      </trkpt>
      <trkpt lat="45.97305" lon="6.41937">
        <ele>1665</ele>
        <time>2018-08-15T16:33:01+02:00</time>
      </trkpt>
      <trkpt lat="45.97297" lon="6.4193">
        <ele>1664</ele>
        <time>2018-08-15T16:33:12+02:00</time>
      </trkpt>
      <trkpt lat="45.97292" lon="6.41919">
        <ele>1663</ele>
        <time>2018-08-15T16:33:51+02:00</time>
      </trkpt>
      <trkpt lat="45.97282" lon="6.41915">
        <ele>1664</ele>
        <time>2018-08-15T16:34:06+02:00</time>
      </trkpt>
      <trkpt lat="45.97273" lon="6.41914">
        <ele>1663</ele>
        <time>2018-08-15T16:34:18+02:00</time>
      </trkpt>
      <trkpt lat="45.97263" lon="6.41913">
        <ele>1663</ele>
        <time>2018-08-15T16:34:30+02:00</time>
      </trkpt>
      <trkpt lat="45.97255" lon="6.41916">
        <ele>1665</ele>
        <time>2018-08-15T16:34:43+02:00</time>
      </trkpt>
      <trkpt lat="45.97246" lon="6.41913">
        <ele>1664</ele>
        <time>2018-08-15T16:34:58+02:00</time>
      </trkpt>
      <trkpt lat="45.97237" lon="6.41909">
        <ele>1666</ele>
        <time>2018-08-15T16:35:11+02:00</time>
      </trkpt>
      <trkpt lat="45.97228" lon="6.41908">
        <ele>1667</ele>
        <time>2018-08-15T16:35:33+02:00</time>
      </trkpt>
      <trkpt lat="45.97219" lon="6.41903">
        <ele>1669</ele>
        <time>2018-08-15T16:35:46+02:00</time>
      </trkpt>
      <trkpt lat="45.9721" lon="6.41898">
        <ele>1673</ele>
        <time>2018-08-15T16:36:00+02:00</time>
      </trkpt>
      <trkpt lat="45.97202" lon="6.41893">
        <ele>1674</ele>
        <time>2018-08-15T16:36:23+02:00</time>
      </trkpt>
      <trkpt lat="45.97195" lon="6.41883">
        <ele>1676</ele>
        <time>2018-08-15T16:36:38+02:00</time>
      </trkpt>
      <trkpt lat="45.97187" lon="6.41876">
        <ele>1677</ele>
        <time>2018-08-15T16:36:58+02:00</time>
      </trkpt>
      <trkpt lat="45.9718" lon="6.41867">
        <ele>1675</ele>
        <time>2018-08-15T16:37:10+02:00</time>
      </trkpt>
      <trkpt lat="45.97173" lon="6.41856">
        <ele>1676</ele>
        <time>2018-08-15T16:37:27+02:00</time>
      </trkpt>
      <trkpt lat="45.97163" lon="6.4185">
        <ele>1672</ele>
        <time>2018-08-15T16:37:57+02:00</time>
      </trkpt>
      <trkpt lat="45.97154" lon="6.41845">
        <ele>1671</ele>
        <time>2018-08-15T16:38:06+02:00</time>
      </trkpt>
      <trkpt lat="45.97145" lon="6.41843">
        <ele>1670</ele>
        <time>2018-08-15T16:38:21+02:00</time>
      </trkpt>
      <trkpt lat="45.97136" lon="6.41837">
        <ele>1669</ele>
        <time>2018-08-15T16:38:34+02:00</time>
      </trkpt>
      <trkpt lat="45.97128" lon="6.41833">
        <ele>1671</ele>
        <time>2018-08-15T16:38:55+02:00</time>
      </trkpt>
      <trkpt lat="45.97119" lon="6.4183">
        <ele>1677</ele>
        <time>2018-08-15T16:39:24+02:00</time>
      </trkpt>
      <trkpt lat="45.9711" lon="6.41825">
        <ele>1681</ele>
        <time>2018-08-15T16:39:45+02:00</time>
      </trkpt>
      <trkpt lat="45.971" lon="6.41826">
        <ele>1685</ele>
        <time>2018-08-15T16:40:11+02:00</time>
      </trkpt>
      <trkpt lat="45.97091" lon="6.41823">
        <ele>1692</ele>
        <time>2018-08-15T16:42:48+02:00</time>
      </trkpt>
      <trkpt lat="45.97083" lon="6.41818">
        <ele>1694</ele>
        <time>2018-08-15T16:43:11+02:00</time>
      </trkpt>
      <trkpt lat="45.97073" lon="6.41814">
        <ele>1696</ele>
        <time>2018-08-15T16:43:29+02:00</time>
      </trkpt>
      <trkpt lat="45.97064" lon="6.41813">
        <ele>1698</ele>
        <time>2018-08-15T16:43:56+02:00</time>
      </trkpt>
      <trkpt lat="45.97054" lon="6.41815">
        <ele>1700</ele>
        <time>2018-08-15T16:44:22+02:00</time>
      </trkpt>
      <trkpt lat="45.97046" lon="6.41812">
        <ele>1702</ele>
        <time>2018-08-15T16:44:48+02:00</time>
      </trkpt>
      <trkpt lat="45.97037" lon="6.41807">
        <ele>1706</ele>
        <time>2018-08-15T16:45:36+02:00</time>
      </trkpt>
      <trkpt lat="45.97032" lon="6.41819">
        <ele>1706</ele>
        <time>2018-08-15T16:46:29+02:00</time>
      </trkpt>
      <trkpt lat="45.97034" lon="6.41831">
        <ele>1714</ele>
        <time>2018-08-15T16:48:27+02:00</time>
      </trkpt>
      <trkpt lat="45.97042" lon="6.4184">
        <ele>1722</ele>
        <time>2018-08-15T16:48:49+02:00</time>
      </trkpt>
      <trkpt lat="45.97051" lon="6.41843">
        <ele>1726</ele>
        <time>2018-08-15T16:49:05+02:00</time>
      </trkpt>
      <trkpt lat="45.97059" lon="6.41852">
        <ele>1724</ele>
        <time>2018-08-15T16:49:17+02:00</time>
      </trkpt>
      <trkpt lat="45.97064" lon="6.41864">
        <ele>1722</ele>
        <time>2018-08-15T16:49:30+02:00</time>
      </trkpt>
      <trkpt lat="45.97073" lon="6.41871">
        <ele>1722</ele>
        <time>2018-08-15T16:49:51+02:00</time>
      </trkpt>
      <trkpt lat="45.97081" lon="6.41876">
        <ele>1724</ele>
        <time>2018-08-15T16:50:12+02:00</time>
      </trkpt>
      <trkpt lat="45.97082" lon="6.41889">
        <ele>1727</ele>
        <time>2018-08-15T16:51:00+02:00</time>
      </trkpt>
      <trkpt lat="45.97083" lon="6.41903">
        <ele>1732</ele>
        <time>2018-08-15T16:51:31+02:00</time>
      </trkpt>
      <trkpt lat="45.97086" lon="6.41915">
        <ele>1733</ele>
        <time>2018-08-15T16:51:52+02:00</time>
      </trkpt>
      <trkpt lat="45.97088" lon="6.41927">
        <ele>1736</ele>
        <time>2018-08-15T16:52:08+02:00</time>
      </trkpt>
      <trkpt lat="45.97086" lon="6.4194">
        <ele>1737</ele>
        <time>2018-08-15T16:52:27+02:00</time>
      </trkpt>
      <trkpt lat="45.97083" lon="6.41953">
        <ele>1738</ele>
        <time>2018-08-15T16:52:37+02:00</time>
      </trkpt>
      <trkpt lat="45.9708" lon="6.41966">
        <ele>1737</ele>
        <time>2018-08-15T16:52:51+02:00</time>
      </trkpt>
      <trkpt lat="45.97078" lon="6.41979">
        <ele>1739</ele>
        <time>2018-08-15T16:53:05+02:00</time>
      </trkpt>
      <trkpt lat="45.97075" lon="6.41992">
        <ele>1738</ele>
        <time>2018-08-15T16:53:20+02:00</time>
      </trkpt>
      <trkpt lat="45.97074" lon="6.42005">
        <ele>1738</ele>
        <time>2018-08-15T16:53:34+02:00</time>
      </trkpt>
      <trkpt lat="45.97069" lon="6.42017">
        <ele>1737</ele>
        <time>2018-08-15T16:53:47+02:00</time>
      </trkpt>
      <trkpt lat="45.97066" lon="6.4203">
        <ele>1734</ele>
        <time>2018-08-15T16:54:05+02:00</time>
      </trkpt>
      <trkpt lat="45.97061" lon="6.42041">
        <ele>1732</ele>
        <time>2018-08-15T16:54:21+02:00</time>
      </trkpt>
      <trkpt lat="45.97061" lon="6.42055">
        <ele>1730</ele>
        <time>2018-08-15T16:54:46+02:00</time>
      </trkpt>
      <trkpt lat="45.97057" lon="6.42068">
        <ele>1728</ele>
        <time>2018-08-15T16:55:04+02:00</time>
      </trkpt>
      <trkpt lat="45.97054" lon="6.42081">
        <ele>1725</ele>
        <time>2018-08-15T16:55:17+02:00</time>
      </trkpt>
      <trkpt lat="45.97054" lon="6.42095">
        <ele>1722</ele>
        <time>2018-08-15T16:55:38+02:00</time>
      </trkpt>
      <trkpt lat="45.97052" lon="6.42108">
        <ele>1719</ele>
        <time>2018-08-15T16:56:18+02:00</time>
      </trkpt>
      <trkpt lat="45.97049" lon="6.4212">
        <ele>1718</ele>
        <time>2018-08-15T16:56:45+02:00</time>
      </trkpt>
      <trkpt lat="45.97042" lon="6.4213">
        <ele>1714</ele>
        <time>2018-08-15T16:57:59+02:00</time>
      </trkpt>
      <trkpt lat="45.97035" lon="6.42141">
        <ele>1711</ele>
        <time>2018-08-15T16:58:28+02:00</time>
      </trkpt>
      <trkpt lat="45.97031" lon="6.42153">
        <ele>1709</ele>
        <time>2018-08-15T16:58:47+02:00</time>
      </trkpt>
      <trkpt lat="45.97026" lon="6.42164">
        <ele>1709</ele>
        <time>2018-08-15T16:59:05+02:00</time>
      </trkpt>
      <trkpt lat="45.97022" lon="6.42176">
        <ele>1708</ele>
        <time>2018-08-15T16:59:27+02:00</time>
      </trkpt>
      <trkpt lat="45.97019" lon="6.42191">
        <ele>1706</ele>
        <time>2018-08-15T16:59:48+02:00</time>
      </trkpt>
      <trkpt lat="45.97024" lon="6.42202">
        <ele>1702</ele>
        <time>2018-08-15T17:00:15+02:00</time>
      </trkpt>
      <trkpt lat="45.97023" lon="6.42216">
        <ele>1700</ele>
        <time>2018-08-15T17:00:36+02:00</time>
      </trkpt>
      <trkpt lat="45.9702" lon="6.42229">
        <ele>1699</ele>
        <time>2018-08-15T17:00:53+02:00</time>
      </trkpt>
      <trkpt lat="45.9702" lon="6.42242">
        <ele>1698</ele>
        <time>2018-08-15T17:01:09+02:00</time>
      </trkpt>
      <trkpt lat="45.97015" lon="6.42254">
        <ele>1699</ele>
        <time>2018-08-15T17:01:22+02:00</time>
      </trkpt>
      <trkpt lat="45.97012" lon="6.42267">
        <ele>1695</ele>
        <time>2018-08-15T17:01:42+02:00</time>
      </trkpt>
      <trkpt lat="45.97005" lon="6.42276">
        <ele>1690</ele>
        <time>2018-08-15T17:02:24+02:00</time>
      </trkpt>
      <trkpt lat="45.96997" lon="6.42281">
        <ele>1689</ele>
        <time>2018-08-15T17:02:45+02:00</time>
      </trkpt>
      <trkpt lat="45.96988" lon="6.42278">
        <ele>1692</ele>
        <time>2018-08-15T17:03:18+02:00</time>
      </trkpt>
      <trkpt lat="45.96979" lon="6.42275">
        <ele>1688</ele>
        <time>2018-08-15T17:03:46+02:00</time>
      </trkpt>
      <trkpt lat="45.96971" lon="6.42267">
        <ele>1684</ele>
        <time>2018-08-15T17:05:00+02:00</time>
      </trkpt>
      <trkpt lat="45.96963" lon="6.42273">
        <ele>1681</ele>
        <time>2018-08-15T17:05:40+02:00</time>
      </trkpt>
      <trkpt lat="45.96955" lon="6.42265">
        <ele>1679</ele>
        <time>2018-08-15T17:06:01+02:00</time>
      </trkpt>
      <trkpt lat="45.96946" lon="6.42263">
        <ele>1666</ele>
        <time>2018-08-15T17:07:06+02:00</time>
      </trkpt>
      <trkpt lat="45.96938" lon="6.42255">
        <ele>1664</ele>
        <time>2018-08-15T17:07:32+02:00</time>
      </trkpt>
      <trkpt lat="45.9693" lon="6.42249">
        <ele>1664</ele>
        <time>2018-08-15T17:07:56+02:00</time>
      </trkpt>
      <trkpt lat="45.96927" lon="6.42236">
        <ele>1663</ele>
        <time>2018-08-15T17:08:08+02:00</time>
      </trkpt>
      <trkpt lat="45.9692" lon="6.42226">
        <ele>1659</ele>
        <time>2018-08-15T17:08:27+02:00</time>
      </trkpt>
      <trkpt lat="45.96909" lon="6.42225">
        <ele>1652</ele>
        <time>2018-08-15T17:09:09+02:00</time>
      </trkpt>
      <trkpt lat="45.96906" lon="6.42238">
        <ele>1646</ele>
        <time>2018-08-15T17:09:57+02:00</time>
      </trkpt>
      <trkpt lat="45.96908" lon="6.42251">
        <ele>1644</ele>
        <time>2018-08-15T17:10:26+02:00</time>
      </trkpt>
      <trkpt lat="45.96899" lon="6.42253">
        <ele>1641</ele>
        <time>2018-08-15T17:10:53+02:00</time>
      </trkpt>
      <trkpt lat="45.9689" lon="6.42252">
        <ele>1641</ele>
        <time>2018-08-15T17:11:25+02:00</time>
      </trkpt>
      <trkpt lat="45.9688" lon="6.42252">
        <ele>1638</ele>
        <time>2018-08-15T17:11:56+02:00</time>
      </trkpt>
      <trkpt lat="45.96876" lon="6.42265">
        <ele>1633</ele>
        <time>2018-08-15T17:12:28+02:00</time>
      </trkpt>
      <trkpt lat="45.96866" lon="6.42267">
        <ele>1630</ele>
        <time>2018-08-15T17:12:52+02:00</time>
      </trkpt>
      <trkpt lat="45.96857" lon="6.42263">
        <ele>1626</ele>
        <time>2018-08-15T17:13:14+02:00</time>
      </trkpt>
      <trkpt lat="45.96847" lon="6.42265">
        <ele>1622</ele>
        <time>2018-08-15T17:13:39+02:00</time>
      </trkpt>
      <trkpt lat="45.96838" lon="6.42268">
        <ele>1620</ele>
        <time>2018-08-15T17:14:05+02:00</time>
      </trkpt>
      <trkpt lat="45.96831" lon="6.42275">
        <ele>1614</ele>
        <time>2018-08-15T17:14:29+02:00</time>
      </trkpt>
      <trkpt lat="45.96822" lon="6.42282">
        <ele>1611</ele>
        <time>2018-08-15T17:14:51+02:00</time>
      </trkpt>
      <trkpt lat="45.96823" lon="6.42295">
        <ele>1604</ele>
        <time>2018-08-15T17:15:19+02:00</time>
      </trkpt>
      <trkpt lat="45.96829" lon="6.42306">
        <ele>1603</ele>
        <time>2018-08-15T17:15:38+02:00</time>
      </trkpt>
      <trkpt lat="45.96834" lon="6.42317">
        <ele>1605</ele>
        <time>2018-08-15T17:15:56+02:00</time>
      </trkpt>
      <trkpt lat="45.96842" lon="6.42324">
        <ele>1602</ele>
        <time>2018-08-15T17:16:35+02:00</time>
      </trkpt>
      <trkpt lat="45.96849" lon="6.42335">
        <ele>1596</ele>
        <time>2018-08-15T17:17:09+02:00</time>
      </trkpt>
      <trkpt lat="45.96855" lon="6.42345">
        <ele>1599</ele>
        <time>2018-08-15T17:17:44+02:00</time>
      </trkpt>
      <trkpt lat="45.9685" lon="6.42356">
        <ele>1600</ele>
        <time>2018-08-15T17:18:25+02:00</time>
      </trkpt>
      <trkpt lat="45.96847" lon="6.42368">
        <ele>1600</ele>
        <time>2018-08-15T17:18:47+02:00</time>
      </trkpt>
      <trkpt lat="45.96851" lon="6.42382">
        <ele>1596</ele>
        <time>2018-08-15T17:18:58+02:00</time>
      </trkpt>
      <trkpt lat="45.96857" lon="6.42393">
        <ele>1589</ele>
        <time>2018-08-15T17:19:10+02:00</time>
      </trkpt>
      <trkpt lat="45.96857" lon="6.42408">
        <ele>1589</ele>
        <time>2018-08-15T17:19:23+02:00</time>
      </trkpt>
      <trkpt lat="45.96858" lon="6.42421">
        <ele>1588</ele>
        <time>2018-08-15T17:20:07+02:00</time>
      </trkpt>
      <trkpt lat="45.9685" lon="6.42419">
        <ele>1585</ele>
        <time>2018-08-15T17:20:46+02:00</time>
      </trkpt>
      <trkpt lat="45.96843" lon="6.42409">
        <ele>1584</ele>
        <time>2018-08-15T17:20:58+02:00</time>
      </trkpt>
      <trkpt lat="45.96835" lon="6.42401">
        <ele>1582</ele>
        <time>2018-08-15T17:21:11+02:00</time>
      </trkpt>
      <trkpt lat="45.96836" lon="6.42414">
        <ele>1577</ele>
        <time>2018-08-15T17:21:46+02:00</time>
      </trkpt>
      <trkpt lat="45.96836" lon="6.42428">
        <ele>1575</ele>
        <time>2018-08-15T17:22:03+02:00</time>
      </trkpt>
      <trkpt lat="45.96831" lon="6.4244">
        <ele>1570</ele>
        <time>2018-08-15T17:22:30+02:00</time>
      </trkpt>
      <trkpt lat="45.96832" lon="6.42453">
        <ele>1568</ele>
        <time>2018-08-15T17:22:48+02:00</time>
      </trkpt>
      <trkpt lat="45.96826" lon="6.42464">
        <ele>1565</ele>
        <time>2018-08-15T17:23:03+02:00</time>
      </trkpt>
      <trkpt lat="45.96825" lon="6.42478">
        <ele>1555</ele>
        <time>2018-08-15T17:24:41+02:00</time>
      </trkpt>
      <trkpt lat="45.96816" lon="6.42481">
        <ele>1543</ele>
        <time>2018-08-15T17:28:35+02:00</time>
      </trkpt>
      <trkpt lat="45.96814" lon="6.42494">
        <ele>1540</ele>
        <time>2018-08-15T17:29:08+02:00</time>
      </trkpt>
      <trkpt lat="45.9681" lon="6.42506">
        <ele>1539</ele>
        <time>2018-08-15T17:29:30+02:00</time>
      </trkpt>
      <trkpt lat="45.96814" lon="6.42518">
        <ele>1536</ele>
        <time>2018-08-15T17:29:55+02:00</time>
      </trkpt>
      <trkpt lat="45.96816" lon="6.42532">
        <ele>1535</ele>
        <time>2018-08-15T17:30:12+02:00</time>
      </trkpt>
      <trkpt lat="45.96816" lon="6.42546">
        <ele>1531</ele>
        <time>2018-08-15T17:30:33+02:00</time>
      </trkpt>
      <trkpt lat="45.96817" lon="6.42561">
        <ele>1527</ele>
        <time>2018-08-15T17:31:09+02:00</time>
      </trkpt>
      <trkpt lat="45.96819" lon="6.42573">
        <ele>1527</ele>
        <time>2018-08-15T17:31:22+02:00</time>
      </trkpt>
      <trkpt lat="45.96823" lon="6.42586">
        <ele>1527</ele>
        <time>2018-08-15T17:31:50+02:00</time>
      </trkpt>
      <trkpt lat="45.96825" lon="6.42599">
        <ele>1523</ele>
        <time>2018-08-15T17:32:19+02:00</time>
      </trkpt>
      <trkpt lat="45.96827" lon="6.42612">
        <ele>1520</ele>
        <time>2018-08-15T17:32:34+02:00</time>
      </trkpt>
      <trkpt lat="45.96829" lon="6.42626">
        <ele>1519</ele>
        <time>2018-08-15T17:32:49+02:00</time>
      </trkpt>
      <trkpt lat="45.9682" lon="6.42623">
        <ele>1515</ele>
        <time>2018-08-15T17:34:19+02:00</time>
      </trkpt>
      <trkpt lat="45.96813" lon="6.42615">
        <ele>1516</ele>
        <time>2018-08-15T17:34:48+02:00</time>
      </trkpt>
      <trkpt lat="45.96809" lon="6.42602">
        <ele>1512</ele>
        <time>2018-08-15T17:35:07+02:00</time>
      </trkpt>
      <trkpt lat="45.968" lon="6.42595">
        <ele>1509</ele>
        <time>2018-08-15T17:35:24+02:00</time>
      </trkpt>
      <trkpt lat="45.96798" lon="6.42608">
        <ele>1498</ele>
        <time>2018-08-15T17:36:55+02:00</time>
      </trkpt>
      <trkpt lat="45.96801" lon="6.42621">
        <ele>1496</ele>
        <time>2018-08-15T17:37:07+02:00</time>
      </trkpt>
      <trkpt lat="45.96804" lon="6.42633">
        <ele>1496</ele>
        <time>2018-08-15T17:37:16+02:00</time>
      </trkpt>
      <trkpt lat="45.96808" lon="6.42647">
        <ele>1496</ele>
        <time>2018-08-15T17:37:34+02:00</time>
      </trkpt>
      <trkpt lat="45.96812" lon="6.4266">
        <ele>1496</ele>
        <time>2018-08-15T17:37:48+02:00</time>
      </trkpt>
      <trkpt lat="45.96816" lon="6.42672">
        <ele>1496</ele>
        <time>2018-08-15T17:38:05+02:00</time>
      </trkpt>
      <trkpt lat="45.9682" lon="6.42686">
        <ele>1496</ele>
        <time>2018-08-15T17:38:30+02:00</time>
      </trkpt>
      <trkpt lat="45.96815" lon="6.42697">
        <ele>1495</ele>
        <time>2018-08-15T17:38:49+02:00</time>
      </trkpt>
      <trkpt lat="45.96813" lon="6.4271">
        <ele>1497</ele>
        <time>2018-08-15T17:39:00+02:00</time>
      </trkpt>
      <trkpt lat="45.96815" lon="6.42724">
        <ele>1496</ele>
        <time>2018-08-15T17:39:10+02:00</time>
      </trkpt>
      <trkpt lat="45.9681" lon="6.42735">
        <ele>1497</ele>
        <time>2018-08-15T17:39:23+02:00</time>
      </trkpt>
      <trkpt lat="45.96807" lon="6.42748">
        <ele>1495</ele>
        <time>2018-08-15T17:39:53+02:00</time>
      </trkpt>
      <trkpt lat="45.96803" lon="6.4276">
        <ele>1493</ele>
        <time>2018-08-15T17:40:08+02:00</time>
      </trkpt>
      <trkpt lat="45.96798" lon="6.42772">
        <ele>1490</ele>
        <time>2018-08-15T17:40:47+02:00</time>
      </trkpt>
      <trkpt lat="45.96797" lon="6.42785">
        <ele>1486</ele>
        <time>2018-08-15T17:41:16+02:00</time>
      </trkpt>
      <trkpt lat="45.96795" lon="6.42801">
        <ele>1484</ele>
        <time>2018-08-15T17:41:52+02:00</time>
      </trkpt>
      <trkpt lat="45.96788" lon="6.42809">
        <ele>1486</ele>
        <time>2018-08-15T17:46:07+02:00</time>
      </trkpt>
      <trkpt lat="45.9679" lon="6.42822">
        <ele>1481</ele>
        <time>2018-08-15T17:46:24+02:00</time>
      </trkpt>
      <trkpt lat="45.96783" lon="6.4283">
        <ele>1480</ele>
        <time>2018-08-15T17:46:46+02:00</time>
      </trkpt>
      <trkpt lat="45.96774" lon="6.42829">
        <ele>1479</ele>
        <time>2018-08-15T17:47:05+02:00</time>
      </trkpt>
      <trkpt lat="45.96765" lon="6.42833">
        <ele>1477</ele>
        <time>2018-08-15T17:47:20+02:00</time>
      </trkpt>
      <trkpt lat="45.96758" lon="6.42842">
        <ele>1474</ele>
        <time>2018-08-15T17:47:32+02:00</time>
      </trkpt>
      <trkpt lat="45.96751" lon="6.4285">
        <ele>1472</ele>
        <time>2018-08-15T17:47:48+02:00</time>
      </trkpt>
      <trkpt lat="45.96743" lon="6.42858">
        <ele>1471</ele>
        <time>2018-08-15T17:48:11+02:00</time>
      </trkpt>
      <trkpt lat="45.96734" lon="6.42867">
        <ele>1468</ele>
        <time>2018-08-15T17:48:29+02:00</time>
      </trkpt>
      <trkpt lat="45.96726" lon="6.42873">
        <ele>1467</ele>
        <time>2018-08-15T17:48:45+02:00</time>
      </trkpt>
      <trkpt lat="45.96717" lon="6.42878">
        <ele>1464</ele>
        <time>2018-08-15T17:49:00+02:00</time>
      </trkpt>
      <trkpt lat="45.96708" lon="6.42884">
        <ele>1463</ele>
        <time>2018-08-15T17:49:15+02:00</time>
      </trkpt>
      <trkpt lat="45.96702" lon="6.42895">
        <ele>1463</ele>
        <time>2018-08-15T17:49:37+02:00</time>
      </trkpt>
      <trkpt lat="45.96698" lon="6.42907">
        <ele>1461</ele>
        <time>2018-08-15T17:49:55+02:00</time>
      </trkpt>
      <trkpt lat="45.96699" lon="6.42922">
        <ele>1459</ele>
        <time>2018-08-15T17:50:10+02:00</time>
      </trkpt>
      <trkpt lat="45.96702" lon="6.42936">
        <ele>1457</ele>
        <time>2018-08-15T17:50:25+02:00</time>
      </trkpt>
      <trkpt lat="45.96711" lon="6.42941">
        <ele>1457</ele>
        <time>2018-08-15T17:50:37+02:00</time>
      </trkpt>
      <trkpt lat="45.96716" lon="6.42952">
        <ele>1454</ele>
        <time>2018-08-15T17:50:54+02:00</time>
      </trkpt>
      <trkpt lat="45.96723" lon="6.42961">
        <ele>1451</ele>
        <time>2018-08-15T17:51:05+02:00</time>
      </trkpt>
      <trkpt lat="45.96728" lon="6.42972">
        <ele>1452</ele>
        <time>2018-08-15T17:51:18+02:00</time>
      </trkpt>
      <trkpt lat="45.96733" lon="6.42983">
        <ele>1450</ele>
        <time>2018-08-15T17:51:29+02:00</time>
      </trkpt>
      <trkpt lat="45.96736" lon="6.42996">
        <ele>1448</ele>
        <time>2018-08-15T17:51:46+02:00</time>
      </trkpt>
      <trkpt lat="45.96737" lon="6.43009">
        <ele>1447</ele>
        <time>2018-08-15T17:52:10+02:00</time>
      </trkpt>
      <trkpt lat="45.9674" lon="6.43023">
        <ele>1445</ele>
        <time>2018-08-15T17:52:24+02:00</time>
      </trkpt>
      <trkpt lat="45.96739" lon="6.43037">
        <ele>1443</ele>
        <time>2018-08-15T17:52:39+02:00</time>
      </trkpt>
      <trkpt lat="45.96739" lon="6.4305">
        <ele>1441</ele>
        <time>2018-08-15T17:53:00+02:00</time>
      </trkpt>
      <trkpt lat="45.96739" lon="6.43064">
        <ele>1438</ele>
        <time>2018-08-15T17:53:20+02:00</time>
      </trkpt>
      <trkpt lat="45.96734" lon="6.43076">
        <ele>1435</ele>
        <time>2018-08-15T17:53:44+02:00</time>
      </trkpt>
      <trkpt lat="45.9673" lon="6.43088">
        <ele>1433</ele>
        <time>2018-08-15T17:54:02+02:00</time>
      </trkpt>
      <trkpt lat="45.96734" lon="6.43101">
        <ele>1433</ele>
        <time>2018-08-15T17:54:22+02:00</time>
      </trkpt>
      <trkpt lat="45.96738" lon="6.43114">
        <ele>1434</ele>
        <time>2018-08-15T17:54:33+02:00</time>
      </trkpt>
      <trkpt lat="45.9674" lon="6.43126">
        <ele>1435</ele>
        <time>2018-08-15T17:54:45+02:00</time>
      </trkpt>
      <trkpt lat="45.96744" lon="6.43139">
        <ele>1435</ele>
        <time>2018-08-15T17:54:57+02:00</time>
      </trkpt>
      <trkpt lat="45.96743" lon="6.43152">
        <ele>1434</ele>
        <time>2018-08-15T17:55:08+02:00</time>
      </trkpt>
      <trkpt lat="45.96744" lon="6.43167">
        <ele>1433</ele>
        <time>2018-08-15T17:55:30+02:00</time>
      </trkpt>
      <trkpt lat="45.9674" lon="6.4318">
        <ele>1432</ele>
        <time>2018-08-15T17:55:45+02:00</time>
      </trkpt>
      <trkpt lat="45.96737" lon="6.43195">
        <ele>1430</ele>
        <time>2018-08-15T17:55:56+02:00</time>
      </trkpt>
      <trkpt lat="45.96737" lon="6.43208">
        <ele>1429</ele>
        <time>2018-08-15T17:56:08+02:00</time>
      </trkpt>
      <trkpt lat="45.96733" lon="6.4322">
        <ele>1433</ele>
        <time>2018-08-15T17:56:25+02:00</time>
      </trkpt>
      <trkpt lat="45.96733" lon="6.43233">
        <ele>1433</ele>
        <time>2018-08-15T17:56:37+02:00</time>
      </trkpt>
      <trkpt lat="45.96737" lon="6.43245">
        <ele>1430</ele>
        <time>2018-08-15T17:56:46+02:00</time>
      </trkpt>
      <trkpt lat="45.96739" lon="6.43259">
        <ele>1429</ele>
        <time>2018-08-15T17:56:55+02:00</time>
      </trkpt>
      <trkpt lat="45.96742" lon="6.43271">
        <ele>1425</ele>
        <time>2018-08-15T17:57:23+02:00</time>
      </trkpt>
      <trkpt lat="45.96742" lon="6.43285">
        <ele>1422</ele>
        <time>2018-08-15T17:57:56+02:00</time>
      </trkpt>
      <trkpt lat="45.96745" lon="6.43297">
        <ele>1420</ele>
        <time>2018-08-15T17:58:11+02:00</time>
      </trkpt>
      <trkpt lat="45.96742" lon="6.43309">
        <ele>1417</ele>
        <time>2018-08-15T17:58:53+02:00</time>
      </trkpt>
      <trkpt lat="45.9674" lon="6.43322">
        <ele>1412</ele>
        <time>2018-08-15T17:59:07+02:00</time>
      </trkpt>
      <trkpt lat="45.96732" lon="6.43333">
        <ele>1408</ele>
        <time>2018-08-15T17:59:27+02:00</time>
      </trkpt>
      <trkpt lat="45.96727" lon="6.43344">
        <ele>1404</ele>
        <time>2018-08-15T18:00:01+02:00</time>
      </trkpt>
      <trkpt lat="45.96718" lon="6.43347">
        <ele>1405</ele>
        <time>2018-08-15T18:00:52+02:00</time>
      </trkpt>
      <trkpt lat="45.96709" lon="6.43351">
        <ele>1405</ele>
        <time>2018-08-15T18:01:17+02:00</time>
      </trkpt>
      <trkpt lat="45.96701" lon="6.43344">
        <ele>1403</ele>
        <time>2018-08-15T18:02:04+02:00</time>
      </trkpt>
      <trkpt lat="45.96695" lon="6.43355">
        <ele>1400</ele>
        <time>2018-08-15T18:02:21+02:00</time>
      </trkpt>
      <trkpt lat="45.96697" lon="6.43367">
        <ele>1400</ele>
        <time>2018-08-15T18:02:33+02:00</time>
      </trkpt>
      <trkpt lat="45.96697" lon="6.43382">
        <ele>1400</ele>
        <time>2018-08-15T18:02:44+02:00</time>
      </trkpt>
      <trkpt lat="45.96699" lon="6.43396">
        <ele>1399</ele>
        <time>2018-08-15T18:02:54+02:00</time>
      </trkpt>
      <trkpt lat="45.96703" lon="6.43408">
        <ele>1397</ele>
        <time>2018-08-15T18:03:05+02:00</time>
      </trkpt>
      <trkpt lat="45.96704" lon="6.43421">
        <ele>1398</ele>
        <time>2018-08-15T18:03:15+02:00</time>
      </trkpt>
      <trkpt lat="45.96699" lon="6.43433">
        <ele>1399</ele>
        <time>2018-08-15T18:03:25+02:00</time>
      </trkpt>
      <trkpt lat="45.96696" lon="6.43445">
        <ele>1399</ele>
        <time>2018-08-15T18:03:37+02:00</time>
      </trkpt>
      <trkpt lat="45.96693" lon="6.43459">
        <ele>1402</ele>
        <time>2018-08-15T18:03:49+02:00</time>
      </trkpt>
      <trkpt lat="45.96692" lon="6.43473">
        <ele>1402</ele>
        <time>2018-08-15T18:04:00+02:00</time>
      </trkpt>
      <trkpt lat="45.96692" lon="6.43487">
        <ele>1404</ele>
        <time>2018-08-15T18:04:11+02:00</time>
      </trkpt>
      <trkpt lat="45.96693" lon="6.43501">
        <ele>1405</ele>
        <time>2018-08-15T18:04:23+02:00</time>
      </trkpt>
      <trkpt lat="45.96694" lon="6.43515">
        <ele>1405</ele>
        <time>2018-08-15T18:04:34+02:00</time>
      </trkpt>
      <trkpt lat="45.96697" lon="6.43528">
        <ele>1404</ele>
        <time>2018-08-15T18:04:45+02:00</time>
      </trkpt>
      <trkpt lat="45.967" lon="6.4354">
        <ele>1405</ele>
        <time>2018-08-15T18:04:55+02:00</time>
      </trkpt>
      <trkpt lat="45.96703" lon="6.43553">
        <ele>1406</ele>
        <time>2018-08-15T18:05:06+02:00</time>
      </trkpt>
      <trkpt lat="45.96706" lon="6.43566">
        <ele>1405</ele>
        <time>2018-08-15T18:05:17+02:00</time>
      </trkpt>
      <trkpt lat="45.9671" lon="6.43578">
        <ele>1404</ele>
        <time>2018-08-15T18:05:29+02:00</time>
      </trkpt>
      <trkpt lat="45.96713" lon="6.43591">
        <ele>1405</ele>
        <time>2018-08-15T18:05:41+02:00</time>
      </trkpt>
      <trkpt lat="45.96716" lon="6.43603">
        <ele>1404</ele>
        <time>2018-08-15T18:05:50+02:00</time>
      </trkpt>
      <trkpt lat="45.96717" lon="6.43616">
        <ele>1403</ele>
        <time>2018-08-15T18:06:02+02:00</time>
      </trkpt>
      <trkpt lat="45.96721" lon="6.43631">
        <ele>1403</ele>
        <time>2018-08-15T18:06:16+02:00</time>
      </trkpt>
      <trkpt lat="45.96725" lon="6.43642">
        <ele>1405</ele>
        <time>2018-08-15T18:06:27+02:00</time>
      </trkpt>
      <trkpt lat="45.96729" lon="6.43654">
        <ele>1404</ele>
        <time>2018-08-15T18:06:47+02:00</time>
      </trkpt>
      <trkpt lat="45.96733" lon="6.43666">
        <ele>1404</ele>
        <time>2018-08-15T18:06:57+02:00</time>
      </trkpt>
      <trkpt lat="45.96737" lon="6.43678">
        <ele>1403</ele>
        <time>2018-08-15T18:07:09+02:00</time>
      </trkpt>
      <trkpt lat="45.96738" lon="6.43692">
        <ele>1403</ele>
        <time>2018-08-15T18:07:20+02:00</time>
      </trkpt>
      <trkpt lat="45.96739" lon="6.43706">
        <ele>1403</ele>
        <time>2018-08-15T18:07:30+02:00</time>
      </trkpt>
      <trkpt lat="45.96739" lon="6.43719">
        <ele>1403</ele>
        <time>2018-08-15T18:07:41+02:00</time>
      </trkpt>
      <trkpt lat="45.9674" lon="6.43733">
        <ele>1402</ele>
        <time>2018-08-15T18:07:52+02:00</time>
      </trkpt>
      <trkpt lat="45.96738" lon="6.43745">
        <ele>1403</ele>
        <time>2018-08-15T18:08:06+02:00</time>
      </trkpt>
      <trkpt lat="45.96737" lon="6.4376">
        <ele>1403</ele>
        <time>2018-08-15T18:08:17+02:00</time>
      </trkpt>
      <trkpt lat="45.96735" lon="6.43773">
        <ele>1402</ele>
        <time>2018-08-15T18:08:28+02:00</time>
      </trkpt>
      <trkpt lat="45.96733" lon="6.43786">
        <ele>1404</ele>
        <time>2018-08-15T18:08:40+02:00</time>
      </trkpt>
      <trkpt lat="45.96736" lon="6.438">
        <ele>1404</ele>
        <time>2018-08-15T18:08:52+02:00</time>
      </trkpt>
      <trkpt lat="45.96744" lon="6.43806">
        <ele>1405</ele>
        <time>2018-08-15T18:09:05+02:00</time>
      </trkpt>
      <trkpt lat="45.96751" lon="6.43816">
        <ele>1406</ele>
        <time>2018-08-15T18:09:15+02:00</time>
      </trkpt>
      <trkpt lat="45.96759" lon="6.43823">
        <ele>1406</ele>
        <time>2018-08-15T18:09:27+02:00</time>
      </trkpt>
      <trkpt lat="45.96768" lon="6.43827">
        <ele>1409</ele>
        <time>2018-08-15T18:09:40+02:00</time>
      </trkpt>
      <trkpt lat="45.96776" lon="6.43832">
        <ele>1408</ele>
        <time>2018-08-15T18:09:53+02:00</time>
      </trkpt>
      <trkpt lat="45.96781" lon="6.43843">
        <ele>1407</ele>
        <time>2018-08-15T18:10:04+02:00</time>
      </trkpt>
      <trkpt lat="45.96784" lon="6.43855">
        <ele>1408</ele>
        <time>2018-08-15T18:10:16+02:00</time>
      </trkpt>
      <trkpt lat="45.96786" lon="6.43868">
        <ele>1406</ele>
        <time>2018-08-15T18:10:27+02:00</time>
      </trkpt>
      <trkpt lat="45.96789" lon="6.43882">
        <ele>1405</ele>
        <time>2018-08-15T18:10:36+02:00</time>
      </trkpt>
      <trkpt lat="45.96792" lon="6.43895">
        <ele>1405</ele>
        <time>2018-08-15T18:10:47+02:00</time>
      </trkpt>
      <trkpt lat="45.96794" lon="6.43908">
        <ele>1405</ele>
        <time>2018-08-15T18:10:57+02:00</time>
      </trkpt>
      <trkpt lat="45.96798" lon="6.43921">
        <ele>1403</ele>
        <time>2018-08-15T18:11:10+02:00</time>
      </trkpt>
      <trkpt lat="45.96802" lon="6.43933">
        <ele>1401</ele>
        <time>2018-08-15T18:11:22+02:00</time>
      </trkpt>
      <trkpt lat="45.96804" lon="6.43946">
        <ele>1401</ele>
        <time>2018-08-15T18:11:34+02:00</time>
      </trkpt>
      <trkpt lat="45.96807" lon="6.43959">
        <ele>1400</ele>
        <time>2018-08-15T18:11:45+02:00</time>
      </trkpt>
      <trkpt lat="45.96809" lon="6.43972">
        <ele>1399</ele>
        <time>2018-08-15T18:11:56+02:00</time>
      </trkpt>
      <trkpt lat="45.96812" lon="6.43986">
        <ele>1399</ele>
        <time>2018-08-15T18:12:08+02:00</time>
      </trkpt>
      <trkpt lat="45.96813" lon="6.43999">
        <ele>1397</ele>
        <time>2018-08-15T18:12:19+02:00</time>
      </trkpt>
      <trkpt lat="45.96815" lon="6.44011">
        <ele>1396</ele>
        <time>2018-08-15T18:12:32+02:00</time>
      </trkpt>
      <trkpt lat="45.96819" lon="6.44023">
        <ele>1395</ele>
        <time>2018-08-15T18:12:43+02:00</time>
      </trkpt>
      <trkpt lat="45.96824" lon="6.44035">
        <ele>1392</ele>
        <time>2018-08-15T18:12:57+02:00</time>
      </trkpt>
      <trkpt lat="45.96829" lon="6.44045">
        <ele>1391</ele>
        <time>2018-08-15T18:13:11+02:00</time>
      </trkpt>
      <trkpt lat="45.96833" lon="6.44057">
        <ele>1393</ele>
        <time>2018-08-15T18:13:25+02:00</time>
      </trkpt>
      <trkpt lat="45.96835" lon="6.4407">
        <ele>1392</ele>
        <time>2018-08-15T18:13:36+02:00</time>
      </trkpt>
      <trkpt lat="45.96838" lon="6.44083">
        <ele>1391</ele>
        <time>2018-08-15T18:13:49+02:00</time>
      </trkpt>
      <trkpt lat="45.96841" lon="6.44095">
        <ele>1390</ele>
        <time>2018-08-15T18:13:58+02:00</time>
      </trkpt>
      <trkpt lat="45.96846" lon="6.44108">
        <ele>1388</ele>
        <time>2018-08-15T18:14:12+02:00</time>
      </trkpt>
      <trkpt lat="45.96852" lon="6.44118">
        <ele>1387</ele>
        <time>2018-08-15T18:14:23+02:00</time>
      </trkpt>
      <trkpt lat="45.96857" lon="6.44129">
        <ele>1383</ele>
        <time>2018-08-15T18:14:42+02:00</time>
      </trkpt>
      <trkpt lat="45.96861" lon="6.44141">
        <ele>1383</ele>
        <time>2018-08-15T18:14:51+02:00</time>
      </trkpt>
      <trkpt lat="45.96866" lon="6.44152">
        <ele>1382</ele>
        <time>2018-08-15T18:15:01+02:00</time>
      </trkpt>
      <trkpt lat="45.96872" lon="6.44163">
        <ele>1380</ele>
        <time>2018-08-15T18:15:11+02:00</time>
      </trkpt>
      <trkpt lat="45.96879" lon="6.44172">
        <ele>1381</ele>
        <time>2018-08-15T18:15:23+02:00</time>
      </trkpt>
      <trkpt lat="45.96886" lon="6.44179">
        <ele>1380</ele>
        <time>2018-08-15T18:15:36+02:00</time>
      </trkpt>
      <trkpt lat="45.96894" lon="6.44187">
        <ele>1378</ele>
        <time>2018-08-15T18:15:48+02:00</time>
      </trkpt>
      <trkpt lat="45.96901" lon="6.44196">
        <ele>1376</ele>
        <time>2018-08-15T18:15:59+02:00</time>
      </trkpt>
      <trkpt lat="45.96909" lon="6.44204">
        <ele>1376</ele>
        <time>2018-08-15T18:16:11+02:00</time>
      </trkpt>
      <trkpt lat="45.96917" lon="6.44212">
        <ele>1375</ele>
        <time>2018-08-15T18:16:22+02:00</time>
      </trkpt>
      <trkpt lat="45.96925" lon="6.4422">
        <ele>1373</ele>
        <time>2018-08-15T18:16:33+02:00</time>
      </trkpt>
      <trkpt lat="45.96933" lon="6.44227">
        <ele>1370</ele>
        <time>2018-08-15T18:16:45+02:00</time>
      </trkpt>
      <trkpt lat="45.9694" lon="6.44235">
        <ele>1369</ele>
        <time>2018-08-15T18:16:55+02:00</time>
      </trkpt>
      <trkpt lat="45.96948" lon="6.44243">
        <ele>1369</ele>
        <time>2018-08-15T18:17:06+02:00</time>
      </trkpt>
      <trkpt lat="45.96957" lon="6.44246">
        <ele>1368</ele>
        <time>2018-08-15T18:17:18+02:00</time>
      </trkpt>
      <trkpt lat="45.96965" lon="6.44253">
        <ele>1367</ele>
        <time>2018-08-15T18:17:29+02:00</time>
      </trkpt>
      <trkpt lat="45.96973" lon="6.44258">
        <ele>1367</ele>
        <time>2018-08-15T18:17:41+02:00</time>
      </trkpt>
      <trkpt lat="45.9698" lon="6.44266">
        <ele>1366</ele>
        <time>2018-08-15T18:17:52+02:00</time>
      </trkpt>
      <trkpt lat="45.96988" lon="6.44273">
        <ele>1365</ele>
        <time>2018-08-15T18:18:03+02:00</time>
      </trkpt>
      <trkpt lat="45.96995" lon="6.44282">
        <ele>1363</ele>
        <time>2018-08-15T18:18:14+02:00</time>
      </trkpt>
      <trkpt lat="45.97003" lon="6.44291">
        <ele>1363</ele>
        <time>2018-08-15T18:18:24+02:00</time>
      </trkpt>
      <trkpt lat="45.9701" lon="6.44299">
        <ele>1362</ele>
        <time>2018-08-15T18:18:36+02:00</time>
      </trkpt>
      <trkpt lat="45.97015" lon="6.4431">
        <ele>1362</ele>
        <time>2018-08-15T18:18:46+02:00</time>
      </trkpt>
      <trkpt lat="45.97019" lon="6.44322">
        <ele>1360</ele>
        <time>2018-08-15T18:18:56+02:00</time>
      </trkpt>
      <trkpt lat="45.97025" lon="6.44333">
        <ele>1359</ele>
        <time>2018-08-15T18:19:07+02:00</time>
      </trkpt>
      <trkpt lat="45.9703" lon="6.44344">
        <ele>1360</ele>
        <time>2018-08-15T18:19:19+02:00</time>
      </trkpt>
      <trkpt lat="45.97034" lon="6.44357">
        <ele>1359</ele>
        <time>2018-08-15T18:19:30+02:00</time>
      </trkpt>
      <trkpt lat="45.97039" lon="6.44369">
        <ele>1357</ele>
        <time>2018-08-15T18:19:43+02:00</time>
      </trkpt>
      <trkpt lat="45.97044" lon="6.44381">
        <ele>1356</ele>
        <time>2018-08-15T18:19:53+02:00</time>
      </trkpt>
      <trkpt lat="45.97047" lon="6.44393">
        <ele>1355</ele>
        <time>2018-08-15T18:20:03+02:00</time>
      </trkpt>
      <trkpt lat="45.97052" lon="6.44403">
        <ele>1354</ele>
        <time>2018-08-15T18:20:15+02:00</time>
      </trkpt>
      <trkpt lat="45.97059" lon="6.44414">
        <ele>1355</ele>
        <time>2018-08-15T18:20:26+02:00</time>
      </trkpt>
      <trkpt lat="45.97064" lon="6.44425">
        <ele>1355</ele>
        <time>2018-08-15T18:20:36+02:00</time>
      </trkpt>
      <trkpt lat="45.9707" lon="6.44435">
        <ele>1351</ele>
        <time>2018-08-15T18:20:50+02:00</time>
      </trkpt>
      <trkpt lat="45.97076" lon="6.44445">
        <ele>1350</ele>
        <time>2018-08-15T18:22:29+02:00</time>
      </trkpt>
      <trkpt lat="45.97081" lon="6.44455">
        <ele>1351</ele>
        <time>2018-08-15T18:22:39+02:00</time>
      </trkpt>
      <trkpt lat="45.97088" lon="6.44466">
        <ele>1351</ele>
        <time>2018-08-15T18:22:50+02:00</time>
      </trkpt>
      <trkpt lat="45.97094" lon="6.44477">
        <ele>1350</ele>
        <time>2018-08-15T18:23:01+02:00</time>
      </trkpt>
      <trkpt lat="45.97098" lon="6.44489">
        <ele>1349</ele>
        <time>2018-08-15T18:23:10+02:00</time>
      </trkpt>
      <trkpt lat="45.971" lon="6.44503">
        <ele>1349</ele>
        <time>2018-08-15T18:23:19+02:00</time>
      </trkpt>
      <trkpt lat="45.97104" lon="6.44514">
        <ele>1350</ele>
        <time>2018-08-15T18:23:29+02:00</time>
      </trkpt>
      <trkpt lat="45.97109" lon="6.44526">
        <ele>1350</ele>
        <time>2018-08-15T18:23:39+02:00</time>
      </trkpt>
      <trkpt lat="45.97116" lon="6.44533">
        <ele>1349</ele>
        <time>2018-08-15T18:23:50+02:00</time>
      </trkpt>
      <trkpt lat="45.97123" lon="6.44543">
        <ele>1348</ele>
        <time>2018-08-15T18:24:00+02:00</time>
      </trkpt>
      <trkpt lat="45.97131" lon="6.44551">
        <ele>1347</ele>
        <time>2018-08-15T18:24:09+02:00</time>
      </trkpt>
      <trkpt lat="45.97136" lon="6.44563">
        <ele>1346</ele>
        <time>2018-08-15T18:24:20+02:00</time>
      </trkpt>
      <trkpt lat="45.97142" lon="6.44574">
        <ele>1346</ele>
        <time>2018-08-15T18:24:31+02:00</time>
      </trkpt>
      <trkpt lat="45.97147" lon="6.44586">
        <ele>1344</ele>
        <time>2018-08-15T18:24:42+02:00</time>
      </trkpt>
      <trkpt lat="45.97151" lon="6.44597">
        <ele>1344</ele>
        <time>2018-08-15T18:24:53+02:00</time>
      </trkpt>
      <trkpt lat="45.97156" lon="6.4461">
        <ele>1341</ele>
        <time>2018-08-15T18:25:05+02:00</time>
      </trkpt>
      <trkpt lat="45.9716" lon="6.44622">
        <ele>1340</ele>
        <time>2018-08-15T18:25:15+02:00</time>
      </trkpt>
      <trkpt lat="45.97163" lon="6.44634">
        <ele>1340</ele>
        <time>2018-08-15T18:25:24+02:00</time>
      </trkpt>
      <trkpt lat="45.97166" lon="6.44647">
        <ele>1339</ele>
        <time>2018-08-15T18:25:32+02:00</time>
      </trkpt>
      <trkpt lat="45.97169" lon="6.4466">
        <ele>1339</ele>
        <time>2018-08-15T18:25:43+02:00</time>
      </trkpt>
      <trkpt lat="45.97172" lon="6.44673">
        <ele>1338</ele>
        <time>2018-08-15T18:25:54+02:00</time>
      </trkpt>
      <trkpt lat="45.97172" lon="6.44686">
        <ele>1337</ele>
        <time>2018-08-15T18:26:05+02:00</time>
      </trkpt>
      <trkpt lat="45.97166" lon="6.44697">
        <ele>1336</ele>
        <time>2018-08-15T18:26:17+02:00</time>
      </trkpt>
      <trkpt lat="45.97158" lon="6.44704">
        <ele>1335</ele>
        <time>2018-08-15T18:26:27+02:00</time>
      </trkpt>
      <trkpt lat="45.9715" lon="6.44712">
        <ele>1335</ele>
        <time>2018-08-15T18:26:37+02:00</time>
      </trkpt>
      <trkpt lat="45.97142" lon="6.4472">
        <ele>1336</ele>
        <time>2018-08-15T18:26:48+02:00</time>
      </trkpt>
      <trkpt lat="45.97136" lon="6.44731">
        <ele>1336</ele>
        <time>2018-08-15T18:26:58+02:00</time>
      </trkpt>
      <trkpt lat="45.97139" lon="6.44745">
        <ele>1334</ele>
        <time>2018-08-15T18:27:06+02:00</time>
      </trkpt>
      <trkpt lat="45.97145" lon="6.44755">
        <ele>1335</ele>
        <time>2018-08-15T18:27:15+02:00</time>
      </trkpt>
      <trkpt lat="45.97152" lon="6.44764">
        <ele>1335</ele>
        <time>2018-08-15T18:27:24+02:00</time>
      </trkpt>
      <trkpt lat="45.9716" lon="6.44772">
        <ele>1336</ele>
        <time>2018-08-15T18:27:34+02:00</time>
      </trkpt>
      <trkpt lat="45.97167" lon="6.4478">
        <ele>1336</ele>
        <time>2018-08-15T18:27:46+02:00</time>
      </trkpt>
      <trkpt lat="45.97174" lon="6.44789">
        <ele>1336</ele>
        <time>2018-08-15T18:27:58+02:00</time>
      </trkpt>
      <trkpt lat="45.9718" lon="6.448">
        <ele>1335</ele>
        <time>2018-08-15T18:28:09+02:00</time>
      </trkpt>
      <trkpt lat="45.97187" lon="6.44808">
        <ele>1336</ele>
        <time>2018-08-15T18:28:20+02:00</time>
      </trkpt>
      <trkpt lat="45.97193" lon="6.44818">
        <ele>1337</ele>
        <time>2018-08-15T18:28:29+02:00</time>
      </trkpt>
      <trkpt lat="45.972" lon="6.44827">
        <ele>1336</ele>
        <time>2018-08-15T18:28:39+02:00</time>
      </trkpt>
      <trkpt lat="45.97206" lon="6.44837">
        <ele>1334</ele>
        <time>2018-08-15T18:28:48+02:00</time>
      </trkpt>
      <trkpt lat="45.9721" lon="6.44848">
        <ele>1335</ele>
        <time>2018-08-15T18:28:58+02:00</time>
      </trkpt>
      <trkpt lat="45.97214" lon="6.44861">
        <ele>1335</ele>
        <time>2018-08-15T18:29:09+02:00</time>
      </trkpt>
      <trkpt lat="45.97219" lon="6.44872">
        <ele>1335</ele>
        <time>2018-08-15T18:29:21+02:00</time>
      </trkpt>
      <trkpt lat="45.97224" lon="6.44884">
        <ele>1335</ele>
        <time>2018-08-15T18:29:32+02:00</time>
      </trkpt>
      <trkpt lat="45.97227" lon="6.44896">
        <ele>1334</ele>
        <time>2018-08-15T18:29:42+02:00</time>
      </trkpt>
      <trkpt lat="45.97232" lon="6.44908">
        <ele>1331</ele>
        <time>2018-08-15T18:29:54+02:00</time>
      </trkpt>
      <trkpt lat="45.97234" lon="6.44921">
        <ele>1333</ele>
        <time>2018-08-15T18:30:04+02:00</time>
      </trkpt>
      <trkpt lat="45.97238" lon="6.44933">
        <ele>1333</ele>
        <time>2018-08-15T18:30:15+02:00</time>
      </trkpt>
      <trkpt lat="45.97243" lon="6.44945">
        <ele>1329</ele>
        <time>2018-08-15T18:30:26+02:00</time>
      </trkpt>
      <trkpt lat="45.97248" lon="6.44956">
        <ele>1329</ele>
        <time>2018-08-15T18:30:36+02:00</time>
      </trkpt>
      <trkpt lat="45.97253" lon="6.44967">
        <ele>1329</ele>
        <time>2018-08-15T18:30:46+02:00</time>
      </trkpt>
      <trkpt lat="45.97257" lon="6.44979">
        <ele>1328</ele>
        <time>2018-08-15T18:30:57+02:00</time>
      </trkpt>
      <trkpt lat="45.97262" lon="6.4499">
        <ele>1326</ele>
        <time>2018-08-15T18:31:07+02:00</time>
      </trkpt>
      <trkpt lat="45.97268" lon="6.45001">
        <ele>1326</ele>
        <time>2018-08-15T18:31:18+02:00</time>
      </trkpt>
      <trkpt lat="45.97274" lon="6.45011">
        <ele>1324</ele>
        <time>2018-08-15T18:31:31+02:00</time>
      </trkpt>
      <trkpt lat="45.97281" lon="6.45023">
        <ele>1324</ele>
        <time>2018-08-15T18:31:42+02:00</time>
      </trkpt>
      <trkpt lat="45.97286" lon="6.45034">
        <ele>1322</ele>
        <time>2018-08-15T18:31:52+02:00</time>
      </trkpt>
      <trkpt lat="45.97292" lon="6.45045">
        <ele>1322</ele>
        <time>2018-08-15T18:32:02+02:00</time>
      </trkpt>
      <trkpt lat="45.97292" lon="6.45058">
        <ele>1320</ele>
        <time>2018-08-15T18:32:14+02:00</time>
      </trkpt>
      <trkpt lat="45.97294" lon="6.45071">
        <ele>1321</ele>
        <time>2018-08-15T18:32:23+02:00</time>
      </trkpt>
      <trkpt lat="45.97295" lon="6.45085">
        <ele>1321</ele>
        <time>2018-08-15T18:32:34+02:00</time>
      </trkpt>
      <trkpt lat="45.97295" lon="6.45099">
        <ele>1321</ele>
        <time>2018-08-15T18:32:45+02:00</time>
      </trkpt>
      <trkpt lat="45.97298" lon="6.45112">
        <ele>1321</ele>
        <time>2018-08-15T18:32:54+02:00</time>
      </trkpt>
      <trkpt lat="45.97301" lon="6.45124">
        <ele>1321</ele>
        <time>2018-08-15T18:33:03+02:00</time>
      </trkpt>
    </trkseg>
  </trk>
</gpx>